<?xml version="1.0" encoding="UTF-8"?>
<gpx  version="1.1"  creator="Verlag Esterbauer" xmlns:xsi="http://www.w3.org/2001/XMLSchema-instance" xmlns="http://www.topografix.com/GPX/1/1"  xsi:schemaLocation="http://www.topografix.com/GPX/1/1 http://www.topografix.com/GPX/1/1/gpx.xsd">
    <trk>
        <name>elbe2#04_1</name>
        <desc>by Verlag Esterbauer</desc>
        <trkseg>
            <trkpt lon="9.96845973" lat="53.54610417">
                <ele>17</ele>
                <time>2013-03-19T14:51:01.804+01:00</time>
            </trkpt>
            <trkpt lon="9.96740500" lat="53.54618056">
                <ele>20</ele>
                <time>2013-03-19T14:51:29.804+01:00</time>
            </trkpt>
            <trkpt lon="9.96681778" lat="53.54622500">
                <ele>21</ele>
                <time>2013-03-19T14:51:44.804+01:00</time>
            </trkpt>
            <trkpt lon="9.96528500" lat="53.54632556">
                <ele>19</ele>
                <time>2013-03-19T14:52:24.804+01:00</time>
            </trkpt>
            <trkpt lon="9.96528500" lat="53.54632556">
                <ele>19</ele>
                <time>2013-03-19T14:52:24.804+01:00</time>
            </trkpt>
            <trkpt lon="9.96317028" lat="53.54655028">
                <ele>21</ele>
                <time>2013-03-19T14:53:20.804+01:00</time>
            </trkpt>
            <trkpt lon="9.96317028" lat="53.54655028">
                <ele>21</ele>
                <time>2013-03-19T14:53:20.804+01:00</time>
            </trkpt>
            <trkpt lon="9.96167667" lat="53.54643195">
                <ele>21</ele>
                <time>2013-03-19T14:53:59.804+01:00</time>
            </trkpt>
            <trkpt lon="9.96099612" lat="53.54636306">
                <ele>17</ele>
                <time>2013-03-19T14:54:17.804+01:00</time>
            </trkpt>
            <trkpt lon="9.95895000" lat="53.54614167">
                <ele>16</ele>
                <time>2013-03-19T14:55:11.804+01:00</time>
            </trkpt>
            <trkpt lon="9.95754417" lat="53.54595445">
                <ele>14</ele>
                <time>2013-03-19T14:55:48.804+01:00</time>
            </trkpt>
            <trkpt lon="9.95503750" lat="53.54566195">
                <ele>18</ele>
                <time>2013-03-19T14:56:55.804+01:00</time>
            </trkpt>
            <trkpt lon="9.95503750" lat="53.54566195">
                <ele>18</ele>
                <time>2013-03-19T14:56:55.804+01:00</time>
            </trkpt>
            <trkpt lon="9.95432389" lat="53.54559417">
                <ele>15</ele>
                <time>2013-03-19T14:57:13.804+01:00</time>
            </trkpt>
            <trkpt lon="9.95432389" lat="53.54559417">
                <ele>15</ele>
                <time>2013-03-19T14:57:13.804+01:00</time>
            </trkpt>
            <trkpt lon="9.95330139" lat="53.54548389">
                <ele>13</ele>
                <time>2013-03-19T14:57:40.804+01:00</time>
            </trkpt>
            <trkpt lon="9.95033723" lat="53.54483778">
                <ele>7</ele>
                <time>2013-03-19T14:58:59.804+01:00</time>
            </trkpt>
            <trkpt lon="9.94872195" lat="53.54453973">
                <ele>7</ele>
                <time>2013-03-19T14:59:42.804+01:00</time>
            </trkpt>
            <trkpt lon="9.94710695" lat="53.54431306">
                <ele>7</ele>
                <time>2013-03-19T15:00:24.804+01:00</time>
            </trkpt>
            <trkpt lon="9.94431389" lat="53.54438417">
                <ele>9</ele>
                <time>2013-03-19T15:01:38.804+01:00</time>
            </trkpt>
            <trkpt lon="9.94216389" lat="53.54441473">
                <ele>8</ele>
                <time>2013-03-19T15:02:34.804+01:00</time>
            </trkpt>
            <trkpt lon="9.94216389" lat="53.54441473">
                <ele>8</ele>
                <time>2013-03-19T15:02:34.804+01:00</time>
            </trkpt>
            <trkpt lon="9.94000334" lat="53.54450834">
                <ele>10</ele>
                <time>2013-03-19T15:03:31.804+01:00</time>
            </trkpt>
            <trkpt lon="9.93790778" lat="53.54462862">
                <ele>7</ele>
                <time>2013-03-19T15:04:26.804+01:00</time>
            </trkpt>
            <trkpt lon="9.93611500" lat="53.54468223">
                <ele>8</ele>
                <time>2013-03-19T15:05:13.804+01:00</time>
            </trkpt>
            <trkpt lon="9.93609945" lat="53.54472223">
                <ele>7</ele>
                <time>2013-03-19T15:05:13.804+01:00</time>
            </trkpt>
            <trkpt lon="9.93409862" lat="53.54465084">
                <ele>7</ele>
                <time>2013-03-19T15:06:06.804+01:00</time>
            </trkpt>
            <trkpt lon="9.93282306" lat="53.54466084">
                <ele>9</ele>
                <time>2013-03-19T15:06:40.804+01:00</time>
            </trkpt>
            <trkpt lon="9.92982834" lat="53.54469056">
                <ele>8</ele>
                <time>2013-03-19T15:07:59.804+01:00</time>
            </trkpt>
            <trkpt lon="9.92778362" lat="53.54469473">
                <ele>14</ele>
                <time>2013-03-19T15:08:54.804+01:00</time>
            </trkpt>
            <trkpt lon="9.92763639" lat="53.54497334">
                <ele>20</ele>
                <time>2013-03-19T15:09:01.804+01:00</time>
            </trkpt>
            <trkpt lon="9.92761806" lat="53.54498139">
                <ele>20</ele>
                <time>2013-03-19T15:09:01.804+01:00</time>
            </trkpt>
            <trkpt lon="9.92535223" lat="53.54477862">
                <ele>16</ele>
                <time>2013-03-19T15:10:01.804+01:00</time>
            </trkpt>
            <trkpt lon="9.92377806" lat="53.54449917">
                <ele>10</ele>
                <time>2013-03-19T15:10:42.804+01:00</time>
            </trkpt>
            <trkpt lon="9.92205528" lat="53.54449445">
                <ele>15</ele>
                <time>2013-03-19T15:11:28.804+01:00</time>
            </trkpt>
            <trkpt lon="9.92217334" lat="53.54440445">
                <ele>13</ele>
                <time>2013-03-19T15:11:31.804+01:00</time>
            </trkpt>
            <trkpt lon="9.92106112" lat="53.54435889">
                <ele>14</ele>
                <time>2013-03-19T15:12:00.804+01:00</time>
            </trkpt>
            <trkpt lon="9.91915250" lat="53.54440945">
                <ele>12</ele>
                <time>2013-03-19T15:12:50.804+01:00</time>
            </trkpt>
            <trkpt lon="9.91821084" lat="53.54421139">
                <ele>10</ele>
                <time>2013-03-19T15:13:15.804+01:00</time>
            </trkpt>
            <trkpt lon="9.91477167" lat="53.54442445">
                <ele>11</ele>
                <time>2013-03-19T15:14:46.804+01:00</time>
            </trkpt>
            <trkpt lon="9.91454528" lat="53.54439973">
                <ele>10</ele>
                <time>2013-03-19T15:14:52.804+01:00</time>
            </trkpt>
            <trkpt lon="9.91454528" lat="53.54439973">
                <ele>10</ele>
                <time>2013-03-19T15:14:52.804+01:00</time>
            </trkpt>
            <trkpt lon="9.91362306" lat="53.54441501">
                <ele>7</ele>
                <time>2013-03-19T15:15:16.804+01:00</time>
            </trkpt>
            <trkpt lon="9.91314806" lat="53.54443417">
                <ele>7</ele>
                <time>2013-03-19T15:15:28.804+01:00</time>
            </trkpt>
            <trkpt lon="9.91302056" lat="53.54449167">
                <ele>8</ele>
                <time>2013-03-19T15:15:31.804+01:00</time>
            </trkpt>
            <trkpt lon="9.91290362" lat="53.54467250">
                <ele>9</ele>
                <time>2013-03-19T15:15:35.804+01:00</time>
            </trkpt>
            <trkpt lon="9.91287834" lat="53.54490667">
                <ele>12</ele>
                <time>2013-03-19T15:15:39.804+01:00</time>
            </trkpt>
            <trkpt lon="9.91088028" lat="53.54480667">
                <ele>17</ele>
                <time>2013-03-19T15:16:33.804+01:00</time>
            </trkpt>
            <trkpt lon="9.90976250" lat="53.54475056">
                <ele>19</ele>
                <time>2013-03-19T15:17:03.804+01:00</time>
            </trkpt>
            <trkpt lon="9.90722473" lat="53.54476973">
                <ele>18</ele>
                <time>2013-03-19T15:18:10.804+01:00</time>
            </trkpt>
            <trkpt lon="9.90608167" lat="53.54478389">
                <ele>17</ele>
                <time>2013-03-19T15:18:40.804+01:00</time>
            </trkpt>
            <trkpt lon="9.90608167" lat="53.54478389">
                <ele>17</ele>
                <time>2013-03-19T15:18:40.804+01:00</time>
            </trkpt>
            <trkpt lon="9.90492667" lat="53.54469723">
                <ele>14</ele>
                <time>2013-03-19T15:19:10.804+01:00</time>
            </trkpt>
            <trkpt lon="9.90332473" lat="53.54467334">
                <ele>13</ele>
                <time>2013-03-19T15:19:52.804+01:00</time>
            </trkpt>
            <trkpt lon="9.90178584" lat="53.54477501">
                <ele>17</ele>
                <time>2013-03-19T15:20:33.804+01:00</time>
            </trkpt>
            <trkpt lon="9.90051667" lat="53.54476639">
                <ele>14</ele>
                <time>2013-03-19T15:21:06.804+01:00</time>
            </trkpt>
            <trkpt lon="9.89911889" lat="53.54484612">
                <ele>13</ele>
                <time>2013-03-19T15:21:43.804+01:00</time>
            </trkpt>
            <trkpt lon="9.89874667" lat="53.54488917">
                <ele>13</ele>
                <time>2013-03-19T15:21:52.804+01:00</time>
            </trkpt>
            <trkpt lon="9.89870639" lat="53.54458639">
                <ele>10</ele>
                <time>2013-03-19T15:21:56.804+01:00</time>
            </trkpt>
            <trkpt lon="9.89870639" lat="53.54458639">
                <ele>10</ele>
                <time>2013-03-19T15:21:56.804+01:00</time>
            </trkpt>
            <trkpt lon="9.89705556" lat="53.54479528">
                <ele>13</ele>
                <time>2013-03-19T15:22:40.804+01:00</time>
            </trkpt>
            <trkpt lon="9.89647056" lat="53.54474473">
                <ele>14</ele>
                <time>2013-03-19T15:22:55.804+01:00</time>
            </trkpt>
            <trkpt lon="9.89257723" lat="53.54486612">
                <ele>13</ele>
                <time>2013-03-19T15:24:38.804+01:00</time>
            </trkpt>
            <trkpt lon="9.89260139" lat="53.54488501">
                <ele>13</ele>
                <time>2013-03-19T15:24:39.804+01:00</time>
            </trkpt>
            <trkpt lon="9.89162500" lat="53.54500306">
                <ele>13</ele>
                <time>2013-03-19T15:25:19.804+01:00</time>
            </trkpt>
            <trkpt lon="9.89013750" lat="53.54494167">
                <ele>10</ele>
                <time>2013-03-19T15:26:20.804+01:00</time>
            </trkpt>
            <trkpt lon="9.88869223" lat="53.54494889">
                <ele>11</ele>
                <time>2013-03-19T15:27:19.804+01:00</time>
            </trkpt>
            <trkpt lon="9.88681750" lat="53.54508695">
                <ele>11</ele>
                <time>2013-03-19T15:28:36.804+01:00</time>
            </trkpt>
            <trkpt lon="9.88574556" lat="53.54508112">
                <ele>8</ele>
                <time>2013-03-19T15:29:20.804+01:00</time>
            </trkpt>
            <trkpt lon="9.88465195" lat="53.54507417">
                <ele>7</ele>
                <time>2013-03-19T15:30:05.804+01:00</time>
            </trkpt>
            <trkpt lon="9.88465195" lat="53.54507417">
                <ele>7</ele>
                <time>2013-03-19T15:30:05.804+01:00</time>
            </trkpt>
            <trkpt lon="9.88382973" lat="53.54536417">
                <ele>14</ele>
                <time>2013-03-19T15:30:28.804+01:00</time>
            </trkpt>
            <trkpt lon="9.88152584" lat="53.54550223">
                <ele>11</ele>
                <time>2013-03-19T15:31:29.804+01:00</time>
            </trkpt>
            <trkpt lon="9.88061362" lat="53.54569084">
                <ele>16</ele>
                <time>2013-03-19T15:31:54.804+01:00</time>
            </trkpt>
            <trkpt lon="9.87935806" lat="53.54574389">
                <ele>17</ele>
                <time>2013-03-19T15:32:27.804+01:00</time>
            </trkpt>
            <trkpt lon="9.87832889" lat="53.54573639">
                <ele>19</ele>
                <time>2013-03-19T15:32:54.804+01:00</time>
            </trkpt>
            <trkpt lon="9.87783056" lat="53.54571945">
                <ele>19</ele>
                <time>2013-03-19T15:33:07.804+01:00</time>
            </trkpt>
            <trkpt lon="9.87658862" lat="53.54580000">
                <ele>18</ele>
                <time>2013-03-19T15:33:39.804+01:00</time>
            </trkpt>
            <trkpt lon="9.87558667" lat="53.54597612">
                <ele>16</ele>
                <time>2013-03-19T15:34:05.804+01:00</time>
            </trkpt>
            <trkpt lon="9.87449695" lat="53.54617445">
                <ele>15</ele>
                <time>2013-03-19T15:34:34.804+01:00</time>
            </trkpt>
            <trkpt lon="9.87364306" lat="53.54617806">
                <ele>14</ele>
                <time>2013-03-19T15:34:56.804+01:00</time>
            </trkpt>
            <trkpt lon="9.87364306" lat="53.54617806">
                <ele>14</ele>
                <time>2013-03-19T15:34:56.804+01:00</time>
            </trkpt>
            <trkpt lon="9.87246362" lat="53.54635778">
                <ele>11</ele>
                <time>2013-03-19T15:35:44.804+01:00</time>
            </trkpt>
            <trkpt lon="9.87051723" lat="53.54672612">
                <ele>7</ele>
                <time>2013-03-19T15:37:04.804+01:00</time>
            </trkpt>
            <trkpt lon="9.87051723" lat="53.54672612">
                <ele>7</ele>
                <time>2013-03-19T15:37:04.804+01:00</time>
            </trkpt>
            <trkpt lon="9.86917223" lat="53.54692639">
                <ele>9</ele>
                <time>2013-03-19T15:38:00.804+01:00</time>
            </trkpt>
            <trkpt lon="9.86854112" lat="53.54705250">
                <ele>8</ele>
                <time>2013-03-19T15:38:26.804+01:00</time>
            </trkpt>
            <trkpt lon="9.86802695" lat="53.54728501">
                <ele>9</ele>
                <time>2013-03-19T15:38:48.804+01:00</time>
            </trkpt>
            <trkpt lon="9.86783000" lat="53.54747806">
                <ele>8</ele>
                <time>2013-03-19T15:38:57.804+01:00</time>
            </trkpt>
            <trkpt lon="9.86776889" lat="53.54775028">
                <ele>7</ele>
                <time>2013-03-19T15:39:04.804+01:00</time>
            </trkpt>
            <trkpt lon="9.86776889" lat="53.54775028">
                <ele>7</ele>
                <time>2013-03-19T15:39:04.804+01:00</time>
            </trkpt>
            <trkpt lon="9.86677778" lat="53.54781445">
                <ele>8</ele>
                <time>2013-03-19T15:39:30.804+01:00</time>
            </trkpt>
            <trkpt lon="9.86584223" lat="53.54778695">
                <ele>8</ele>
                <time>2013-03-19T15:39:54.804+01:00</time>
            </trkpt>
            <trkpt lon="9.86482667" lat="53.54758973">
                <ele>9</ele>
                <time>2013-03-19T15:40:21.804+01:00</time>
            </trkpt>
            <trkpt lon="9.86482667" lat="53.54758973">
                <ele>9</ele>
                <time>2013-03-19T15:40:21.804+01:00</time>
            </trkpt>
            <trkpt lon="9.86476584" lat="53.54745834">
                <ele>8</ele>
                <time>2013-03-19T15:40:23.804+01:00</time>
            </trkpt>
            <trkpt lon="9.86457223" lat="53.54732695">
                <ele>8</ele>
                <time>2013-03-19T15:40:28.804+01:00</time>
            </trkpt>
            <trkpt lon="9.86386389" lat="53.54709445">
                <ele>7</ele>
                <time>2013-03-19T15:40:47.804+01:00</time>
            </trkpt>
            <trkpt lon="9.86245528" lat="53.54724167">
                <ele>6</ele>
                <time>2013-03-19T15:41:24.804+01:00</time>
            </trkpt>
            <trkpt lon="9.86021862" lat="53.54779445">
                <ele>6</ele>
                <time>2013-03-19T15:42:23.804+01:00</time>
            </trkpt>
            <trkpt lon="9.85981084" lat="53.54778750">
                <ele>7</ele>
                <time>2013-03-19T15:42:34.804+01:00</time>
            </trkpt>
            <trkpt lon="9.85884723" lat="53.54770945">
                <ele>8</ele>
                <time>2013-03-19T15:42:59.804+01:00</time>
            </trkpt>
            <trkpt lon="9.85488751" lat="53.54821473">
                <ele>9</ele>
                <time>2013-03-19T15:44:44.804+01:00</time>
            </trkpt>
            <trkpt lon="9.85401695" lat="53.54857500">
                <ele>9</ele>
                <time>2013-03-19T15:45:07.804+01:00</time>
            </trkpt>
            <trkpt lon="9.85267306" lat="53.54879445">
                <ele>8</ele>
                <time>2013-03-19T15:45:42.804+01:00</time>
            </trkpt>
            <trkpt lon="9.85099778" lat="53.54904139">
                <ele>9</ele>
                <time>2013-03-19T15:46:26.804+01:00</time>
            </trkpt>
            <trkpt lon="9.84904223" lat="53.54934278">
                <ele>9</ele>
                <time>2013-03-19T15:47:18.804+01:00</time>
            </trkpt>
            <trkpt lon="9.84726139" lat="53.54965528">
                <ele>12</ele>
                <time>2013-03-19T15:48:06.804+01:00</time>
            </trkpt>
            <trkpt lon="9.84497945" lat="53.54986417">
                <ele>13</ele>
                <time>2013-03-19T15:49:06.804+01:00</time>
            </trkpt>
            <trkpt lon="9.84497945" lat="53.54986417">
                <ele>13</ele>
                <time>2013-03-19T15:49:06.804+01:00</time>
            </trkpt>
            <trkpt lon="9.84333778" lat="53.55003973">
                <ele>15</ele>
                <time>2013-03-19T15:50:14.804+01:00</time>
            </trkpt>
            <trkpt lon="9.84248334" lat="53.55027862">
                <ele>12</ele>
                <time>2013-03-19T15:50:49.804+01:00</time>
            </trkpt>
            <trkpt lon="9.84114389" lat="53.55052806">
                <ele>9</ele>
                <time>2013-03-19T15:51:44.804+01:00</time>
            </trkpt>
            <trkpt lon="9.83946445" lat="53.55074667">
                <ele>11</ele>
                <time>2013-03-19T15:52:54.804+01:00</time>
            </trkpt>
            <trkpt lon="9.83946445" lat="53.55074667">
                <ele>11</ele>
                <time>2013-03-19T15:52:54.804+01:00</time>
            </trkpt>
            <trkpt lon="9.83740778" lat="53.55105278">
                <ele>10</ele>
                <time>2013-03-19T15:53:48.804+01:00</time>
            </trkpt>
            <trkpt lon="9.83636195" lat="53.55119806">
                <ele>9</ele>
                <time>2013-03-19T15:54:15.804+01:00</time>
            </trkpt>
            <trkpt lon="9.83636195" lat="53.55119806">
                <ele>9</ele>
                <time>2013-03-19T15:54:15.804+01:00</time>
            </trkpt>
            <trkpt lon="9.83461751" lat="53.55169056">
                <ele>10</ele>
                <time>2013-03-19T15:55:28.804+01:00</time>
            </trkpt>
            <trkpt lon="9.83461751" lat="53.55169056">
                <ele>10</ele>
                <time>2013-03-19T15:55:28.804+01:00</time>
            </trkpt>
            <trkpt lon="9.83152223" lat="53.55241584">
                <ele>9</ele>
                <time>2013-03-19T15:56:50.804+01:00</time>
            </trkpt>
            <trkpt lon="9.83152223" lat="53.55241584">
                <ele>9</ele>
                <time>2013-03-19T15:56:50.804+01:00</time>
            </trkpt>
            <trkpt lon="9.82999112" lat="53.55276584">
                <ele>10</ele>
                <time>2013-03-19T15:57:59.804+01:00</time>
            </trkpt>
            <trkpt lon="9.82785112" lat="53.55322806">
                <ele>12</ele>
                <time>2013-03-19T15:59:35.804+01:00</time>
            </trkpt>
            <trkpt lon="9.82641750" lat="53.55340834">
                <ele>8</ele>
                <time>2013-03-19T16:00:39.804+01:00</time>
            </trkpt>
            <trkpt lon="9.82520084" lat="53.55366084">
                <ele>8</ele>
                <time>2013-03-19T16:01:33.804+01:00</time>
            </trkpt>
            <trkpt lon="9.82404584" lat="53.55397445">
                <ele>8</ele>
                <time>2013-03-19T16:02:25.804+01:00</time>
            </trkpt>
            <trkpt lon="9.82320667" lat="53.55420139">
                <ele>8</ele>
                <time>2013-03-19T16:03:02.804+01:00</time>
            </trkpt>
            <trkpt lon="9.82240778" lat="53.55417112">
                <ele>6</ele>
                <time>2013-03-19T16:03:37.804+01:00</time>
            </trkpt>
            <trkpt lon="9.82059667" lat="53.55427862">
                <ele>7</ele>
                <time>2013-03-19T16:04:58.804+01:00</time>
            </trkpt>
            <trkpt lon="9.82059667" lat="53.55427862">
                <ele>7</ele>
                <time>2013-03-19T16:04:58.804+01:00</time>
            </trkpt>
            <trkpt lon="9.81899751" lat="53.55449334">
                <ele>7</ele>
                <time>2013-03-19T16:06:09.804+01:00</time>
            </trkpt>
            <trkpt lon="9.81663473" lat="53.55453612">
                <ele>8</ele>
                <time>2013-03-19T16:07:54.804+01:00</time>
            </trkpt>
            <trkpt lon="9.81663473" lat="53.55453612">
                <ele>8</ele>
                <time>2013-03-19T16:07:54.804+01:00</time>
            </trkpt>
            <trkpt lon="9.81558473" lat="53.55473889">
                <ele>9</ele>
                <time>2013-03-19T16:08:41.804+01:00</time>
            </trkpt>
            <trkpt lon="9.81545806" lat="53.55473612">
                <ele>9</ele>
                <time>2013-03-19T16:08:46.804+01:00</time>
            </trkpt>
            <trkpt lon="9.81460445" lat="53.55493000">
                <ele>8</ele>
                <time>2013-03-19T16:09:24.804+01:00</time>
            </trkpt>
            <trkpt lon="9.81360778" lat="53.55515750">
                <ele>8</ele>
                <time>2013-03-19T16:10:08.804+01:00</time>
            </trkpt>
            <trkpt lon="9.81241112" lat="53.55558639">
                <ele>15</ele>
                <time>2013-03-19T16:11:05.804+01:00</time>
            </trkpt>
            <trkpt lon="9.81091223" lat="53.55595806">
                <ele>13</ele>
                <time>2013-03-19T16:12:12.804+01:00</time>
            </trkpt>
            <trkpt lon="9.81091223" lat="53.55595806">
                <ele>13</ele>
                <time>2013-03-19T16:12:12.804+01:00</time>
            </trkpt>
            <trkpt lon="9.81008945" lat="53.55618278">
                <ele>13</ele>
                <time>2013-03-19T16:12:49.804+01:00</time>
            </trkpt>
            <trkpt lon="9.80888028" lat="53.55631500">
                <ele>9</ele>
                <time>2013-03-19T16:13:42.804+01:00</time>
            </trkpt>
            <trkpt lon="9.80803139" lat="53.55644306">
                <ele>9</ele>
                <time>2013-03-19T16:14:19.804+01:00</time>
            </trkpt>
            <trkpt lon="9.80803139" lat="53.55644306">
                <ele>9</ele>
                <time>2013-03-19T16:14:19.804+01:00</time>
            </trkpt>
            <trkpt lon="9.80658278" lat="53.55664695">
                <ele>9</ele>
                <time>2013-03-19T16:15:23.804+01:00</time>
            </trkpt>
            <trkpt lon="9.80493806" lat="53.55684695">
                <ele>8</ele>
                <time>2013-03-19T16:16:36.804+01:00</time>
            </trkpt>
            <trkpt lon="9.80492695" lat="53.55683556">
                <ele>8</ele>
                <time>2013-03-19T16:16:36.804+01:00</time>
            </trkpt>
            <trkpt lon="9.80385556" lat="53.55701806">
                <ele>6</ele>
                <time>2013-03-19T16:17:23.804+01:00</time>
            </trkpt>
            <trkpt lon="9.80334278" lat="53.55713139">
                <ele>6</ele>
                <time>2013-03-19T16:17:46.804+01:00</time>
            </trkpt>
            <trkpt lon="9.80275695" lat="53.55713362">
                <ele>6</ele>
                <time>2013-03-19T16:18:12.804+01:00</time>
            </trkpt>
            <trkpt lon="9.80213889" lat="53.55744251">
                <ele>7</ele>
                <time>2013-03-19T16:18:41.804+01:00</time>
            </trkpt>
            <trkpt lon="9.79908889" lat="53.55803223">
                <ele>8</ele>
                <time>2013-03-19T16:20:58.804+01:00</time>
            </trkpt>
            <trkpt lon="9.79792639" lat="53.55802639">
                <ele>7</ele>
                <time>2013-03-19T16:21:49.804+01:00</time>
            </trkpt>
            <trkpt lon="9.79346751" lat="53.55898084">
                <ele>9</ele>
                <time>2013-03-19T16:25:09.804+01:00</time>
            </trkpt>
            <trkpt lon="9.79222362" lat="53.55928362">
                <ele>10</ele>
                <time>2013-03-19T16:26:05.804+01:00</time>
            </trkpt>
            <trkpt lon="9.79126028" lat="53.55940500">
                <ele>8</ele>
                <time>2013-03-19T16:26:48.804+01:00</time>
            </trkpt>
            <trkpt lon="9.79082056" lat="53.55949000">
                <ele>8</ele>
                <time>2013-03-19T16:27:07.804+01:00</time>
            </trkpt>
            <trkpt lon="9.79067278" lat="53.55970445">
                <ele>9</ele>
                <time>2013-03-19T16:27:16.804+01:00</time>
            </trkpt>
            <trkpt lon="9.79013639" lat="53.55979028">
                <ele>9</ele>
                <time>2013-03-19T16:27:39.804+01:00</time>
            </trkpt>
            <trkpt lon="9.78867834" lat="53.56001334">
                <ele>9</ele>
                <time>2013-03-19T16:28:44.804+01:00</time>
            </trkpt>
            <trkpt lon="9.78698862" lat="53.56040945">
                <ele>7</ele>
                <time>2013-03-19T16:29:59.804+01:00</time>
            </trkpt>
            <trkpt lon="9.78378362" lat="53.56136806">
                <ele>7</ele>
                <time>2013-03-19T16:32:23.804+01:00</time>
            </trkpt>
            <trkpt lon="9.78116528" lat="53.56179806">
                <ele>8</ele>
                <time>2013-03-19T16:34:20.804+01:00</time>
            </trkpt>
            <trkpt lon="9.77948445" lat="53.56227056">
                <ele>11</ele>
                <time>2013-03-19T16:35:37.804+01:00</time>
            </trkpt>
            <trkpt lon="9.77700084" lat="53.56254389">
                <ele>11</ele>
                <time>2013-03-19T16:37:27.804+01:00</time>
            </trkpt>
            <trkpt lon="9.77641556" lat="53.56263778">
                <ele>9</ele>
                <time>2013-03-19T16:37:53.804+01:00</time>
            </trkpt>
            <trkpt lon="9.77640806" lat="53.56264778">
                <ele>9</ele>
                <time>2013-03-19T16:37:53.804+01:00</time>
            </trkpt>
            <trkpt lon="9.77134223" lat="53.56379584">
                <ele>11</ele>
                <time>2013-03-19T16:41:24.804+01:00</time>
            </trkpt>
            <trkpt lon="9.76845389" lat="53.56452278">
                <ele>22</ele>
                <time>2013-03-19T16:43:28.804+01:00</time>
            </trkpt>
            <trkpt lon="9.76705695" lat="53.56483639">
                <ele>19</ele>
                <time>2013-03-19T16:44:26.804+01:00</time>
            </trkpt>
            <trkpt lon="9.76440084" lat="53.56491306">
                <ele>17</ele>
                <time>2013-03-19T16:46:15.804+01:00</time>
            </trkpt>
            <trkpt lon="9.76342639" lat="53.56508362">
                <ele>20</ele>
                <time>2013-03-19T16:46:56.804+01:00</time>
            </trkpt>
            <trkpt lon="9.76199917" lat="53.56518223">
                <ele>13</ele>
                <time>2013-03-19T16:47:54.804+01:00</time>
            </trkpt>
            <trkpt lon="9.76250000" lat="53.56514917">
                <ele>15</ele>
                <time>2013-03-19T16:48:07.804+01:00</time>
            </trkpt>
            <trkpt lon="9.76177556" lat="53.56530278">
                <ele>15</ele>
                <time>2013-03-19T16:48:26.804+01:00</time>
            </trkpt>
            <trkpt lon="9.76122889" lat="53.56557501">
                <ele>17</ele>
                <time>2013-03-19T16:48:41.804+01:00</time>
            </trkpt>
            <trkpt lon="9.76122889" lat="53.56557501">
                <ele>17</ele>
                <time>2013-03-19T16:48:41.804+01:00</time>
            </trkpt>
            <trkpt lon="9.75960001" lat="53.56560028">
                <ele>13</ele>
                <time>2013-03-19T16:49:24.804+01:00</time>
            </trkpt>
            <trkpt lon="9.75877195" lat="53.56556084">
                <ele>18</ele>
                <time>2013-03-19T16:49:47.804+01:00</time>
            </trkpt>
            <trkpt lon="9.75777056" lat="53.56564167">
                <ele>30</ele>
                <time>2013-03-19T16:50:16.804+01:00</time>
            </trkpt>
            <trkpt lon="9.75749334" lat="53.56533473">
                <ele>26</ele>
                <time>2013-03-19T16:50:24.804+01:00</time>
            </trkpt>
            <trkpt lon="9.75751139" lat="53.56536195">
                <ele>24</ele>
                <time>2013-03-19T16:50:24.804+01:00</time>
            </trkpt>
            <trkpt lon="9.75720028" lat="53.56516528">
                <ele>22</ele>
                <time>2013-03-19T16:50:32.804+01:00</time>
            </trkpt>
            <trkpt lon="9.75650028" lat="53.56503223">
                <ele>19</ele>
                <time>2013-03-19T16:50:50.804+01:00</time>
            </trkpt>
            <trkpt lon="9.75505223" lat="53.56519028">
                <ele>23</ele>
                <time>2013-03-19T16:51:29.804+01:00</time>
            </trkpt>
            <trkpt lon="9.75369056" lat="53.56471223">
                <ele>18</ele>
                <time>2013-03-19T16:52:05.804+01:00</time>
            </trkpt>
            <trkpt lon="9.75292917" lat="53.56466001">
                <ele>24</ele>
                <time>2013-03-19T16:52:26.804+01:00</time>
            </trkpt>
            <trkpt lon="9.75181528" lat="53.56445528">
                <ele>20</ele>
                <time>2013-03-19T16:52:55.804+01:00</time>
            </trkpt>
            <trkpt lon="9.75054250" lat="53.56431612">
                <ele>12</ele>
                <time>2013-03-19T16:53:28.804+01:00</time>
            </trkpt>
            <trkpt lon="9.74998001" lat="53.56437945">
                <ele>12</ele>
                <time>2013-03-19T16:53:42.804+01:00</time>
            </trkpt>
            <trkpt lon="9.74995889" lat="53.56436667">
                <ele>12</ele>
                <time>2013-03-19T16:53:42.804+01:00</time>
            </trkpt>
            <trkpt lon="9.74872834" lat="53.56462473">
                <ele>15</ele>
                <time>2013-03-19T16:54:34.804+01:00</time>
            </trkpt>
            <trkpt lon="9.74484195" lat="53.56482195">
                <ele>14</ele>
                <time>2013-03-19T16:57:14.804+01:00</time>
            </trkpt>
            <trkpt lon="9.74200584" lat="53.56493389">
                <ele>7</ele>
                <time>2013-03-19T16:59:10.804+01:00</time>
            </trkpt>
            <trkpt lon="9.74118862" lat="53.56510556">
                <ele>11</ele>
                <time>2013-03-19T16:59:45.804+01:00</time>
            </trkpt>
            <trkpt lon="9.73989223" lat="53.56513001">
                <ele>9</ele>
                <time>2013-03-19T17:00:38.804+01:00</time>
            </trkpt>
            <trkpt lon="9.73649306" lat="53.56552639">
                <ele>8</ele>
                <time>2013-03-19T17:02:58.804+01:00</time>
            </trkpt>
            <trkpt lon="9.73539223" lat="53.56583639">
                <ele>8</ele>
                <time>2013-03-19T17:03:44.804+01:00</time>
            </trkpt>
            <trkpt lon="9.73488417" lat="53.56605195">
                <ele>10</ele>
                <time>2013-03-19T17:04:06.804+01:00</time>
            </trkpt>
            <trkpt lon="9.73485751" lat="53.56607917">
                <ele>10</ele>
                <time>2013-03-19T17:04:06.804+01:00</time>
            </trkpt>
            <trkpt lon="9.73498056" lat="53.56671223">
                <ele>16</ele>
                <time>2013-03-19T17:04:17.804+01:00</time>
            </trkpt>
            <trkpt lon="9.73473528" lat="53.56758000">
                <ele>14</ele>
                <time>2013-03-19T17:04:32.804+01:00</time>
            </trkpt>
            <trkpt lon="9.73490056" lat="53.56882362">
                <ele>14</ele>
                <time>2013-03-19T17:04:52.804+01:00</time>
            </trkpt>
            <trkpt lon="9.73519862" lat="53.56989639">
                <ele>15</ele>
                <time>2013-03-19T17:05:10.804+01:00</time>
            </trkpt>
            <trkpt lon="9.73520834" lat="53.56991056">
                <ele>15</ele>
                <time>2013-03-19T17:05:10.804+01:00</time>
            </trkpt>
            <trkpt lon="9.73157639" lat="53.57093028">
                <ele>16</ele>
                <time>2013-03-19T17:06:47.804+01:00</time>
            </trkpt>
            <trkpt lon="9.72918056" lat="53.57167862">
                <ele>19</ele>
                <time>2013-03-19T17:07:52.804+01:00</time>
            </trkpt>
            <trkpt lon="9.72700362" lat="53.57239751">
                <ele>16</ele>
                <time>2013-03-19T17:08:50.804+01:00</time>
            </trkpt>
            <trkpt lon="9.72700362" lat="53.57239751">
                <ele>16</ele>
                <time>2013-03-19T17:08:50.804+01:00</time>
            </trkpt>
            <trkpt lon="9.72414556" lat="53.57322556">
                <ele>27</ele>
                <time>2013-03-19T17:10:09.804+01:00</time>
            </trkpt>
            <trkpt lon="9.72329584" lat="53.57346250">
                <ele>30</ele>
                <time>2013-03-19T17:10:32.804+01:00</time>
            </trkpt>
            <trkpt lon="9.72115389" lat="53.57408306">
                <ele>31</ele>
                <time>2013-03-19T17:11:29.804+01:00</time>
            </trkpt>
            <trkpt lon="9.72077306" lat="53.57385695">
                <ele>28</ele>
                <time>2013-03-19T17:11:39.804+01:00</time>
            </trkpt>
            <trkpt lon="9.72043139" lat="53.57340251">
                <ele>26</ele>
                <time>2013-03-19T17:11:50.804+01:00</time>
            </trkpt>
            <trkpt lon="9.71937695" lat="53.57222278">
                <ele>24</ele>
                <time>2013-03-19T17:12:23.804+01:00</time>
            </trkpt>
            <trkpt lon="9.71936445" lat="53.57224389">
                <ele>24</ele>
                <time>2013-03-19T17:12:23.804+01:00</time>
            </trkpt>
            <trkpt lon="9.71855195" lat="53.57176556">
                <ele>24</ele>
                <time>2013-03-19T17:12:45.804+01:00</time>
            </trkpt>
            <trkpt lon="9.71735139" lat="53.57129139">
                <ele>26</ele>
                <time>2013-03-19T17:13:18.804+01:00</time>
            </trkpt>
            <trkpt lon="9.71582584" lat="53.57077778">
                <ele>25</ele>
                <time>2013-03-19T17:13:59.804+01:00</time>
            </trkpt>
            <trkpt lon="9.71436084" lat="53.57047778">
                <ele>24</ele>
                <time>2013-03-19T17:14:38.804+01:00</time>
            </trkpt>
            <trkpt lon="9.71198001" lat="53.57013639">
                <ele>29</ele>
                <time>2013-03-19T17:15:42.804+01:00</time>
            </trkpt>
            <trkpt lon="9.70843084" lat="53.56993251">
                <ele>15</ele>
                <time>2013-03-19T17:17:16.804+01:00</time>
            </trkpt>
            <trkpt lon="9.70820084" lat="53.56980778">
                <ele>14</ele>
                <time>2013-03-19T17:17:22.804+01:00</time>
            </trkpt>
            <trkpt lon="9.70622278" lat="53.56981945">
                <ele>16</ele>
                <time>2013-03-19T17:18:14.804+01:00</time>
            </trkpt>
            <trkpt lon="9.70439556" lat="53.56975556">
                <ele>10</ele>
                <time>2013-03-19T17:19:02.804+01:00</time>
            </trkpt>
            <trkpt lon="9.70279723" lat="53.56943778">
                <ele>6</ele>
                <time>2013-03-19T17:19:44.804+01:00</time>
            </trkpt>
            <trkpt lon="9.70162639" lat="53.56915862">
                <ele>6</ele>
                <time>2013-03-19T17:20:15.804+01:00</time>
            </trkpt>
            <trkpt lon="9.70162778" lat="53.56915723">
                <ele>6</ele>
                <time>2013-03-19T17:20:15.804+01:00</time>
            </trkpt>
            <trkpt lon="9.70119139" lat="53.56920695">
                <ele>7</ele>
                <time>2013-03-19T17:20:26.804+01:00</time>
            </trkpt>
            <trkpt lon="9.70066973" lat="53.56936584">
                <ele>8</ele>
                <time>2013-03-19T17:20:40.804+01:00</time>
            </trkpt>
            <trkpt lon="9.70011306" lat="53.56966112">
                <ele>8</ele>
                <time>2013-03-19T17:20:55.804+01:00</time>
            </trkpt>
            <trkpt lon="9.69963001" lat="53.57037889">
                <ele>9</ele>
                <time>2013-03-19T17:21:12.804+01:00</time>
            </trkpt>
            <trkpt lon="9.69908501" lat="53.57086778">
                <ele>8</ele>
                <time>2013-03-19T17:21:28.804+01:00</time>
            </trkpt>
            <trkpt lon="9.69898056" lat="53.57152778">
                <ele>8</ele>
                <time>2013-03-19T17:21:38.804+01:00</time>
            </trkpt>
            <trkpt lon="9.69897223" lat="53.57225500">
                <ele>7</ele>
                <time>2013-03-19T17:21:49.804+01:00</time>
            </trkpt>
            <trkpt lon="9.69917695" lat="53.57342501">
                <ele>7</ele>
                <time>2013-03-19T17:22:08.804+01:00</time>
            </trkpt>
            <trkpt lon="9.69913639" lat="53.57339834">
                <ele>6</ele>
                <time>2013-03-19T17:22:09.804+01:00</time>
            </trkpt>
            <trkpt lon="9.69560750" lat="53.57302417">
                <ele>4</ele>
                <time>2013-03-19T17:23:42.804+01:00</time>
            </trkpt>
            <trkpt lon="9.69353139" lat="53.57292889">
                <ele>5</ele>
                <time>2013-03-19T17:24:37.804+01:00</time>
            </trkpt>
            <trkpt lon="9.69316056" lat="53.57316862">
                <ele>5</ele>
                <time>2013-03-19T17:24:47.804+01:00</time>
            </trkpt>
            <trkpt lon="9.69148723" lat="53.57341306">
                <ele>6</ele>
                <time>2013-03-19T17:25:31.804+01:00</time>
            </trkpt>
            <trkpt lon="9.69149612" lat="53.57343167">
                <ele>6</ele>
                <time>2013-03-19T17:25:31.804+01:00</time>
            </trkpt>
            <trkpt lon="9.69057973" lat="53.57360501">
                <ele>5</ele>
                <time>2013-03-19T17:25:55.804+01:00</time>
            </trkpt>
            <trkpt lon="9.68812251" lat="53.57433639">
                <ele>5</ele>
                <time>2013-03-19T17:27:01.804+01:00</time>
            </trkpt>
            <trkpt lon="9.68445695" lat="53.57536500">
                <ele>7</ele>
                <time>2013-03-19T17:28:39.804+01:00</time>
            </trkpt>
            <trkpt lon="9.67947084" lat="53.57678973">
                <ele>7</ele>
                <time>2013-03-19T17:30:53.804+01:00</time>
            </trkpt>
            <trkpt lon="9.67872778" lat="53.57691723">
                <ele>8</ele>
                <time>2013-03-19T17:31:13.804+01:00</time>
            </trkpt>
            <trkpt lon="9.67689778" lat="53.57727278">
                <ele>6</ele>
                <time>2013-03-19T17:32:01.804+01:00</time>
            </trkpt>
            <trkpt lon="9.67486195" lat="53.57785889">
                <ele>7</ele>
                <time>2013-03-19T17:32:55.804+01:00</time>
            </trkpt>
            <trkpt lon="9.67311139" lat="53.57867389">
                <ele>9</ele>
                <time>2013-03-19T17:33:43.804+01:00</time>
            </trkpt>
            <trkpt lon="9.67184389" lat="53.57907084">
                <ele>10</ele>
                <time>2013-03-19T17:34:17.804+01:00</time>
            </trkpt>
            <trkpt lon="9.66782667" lat="53.58026084">
                <ele>8</ele>
                <time>2013-03-19T17:36:05.804+01:00</time>
            </trkpt>
            <trkpt lon="9.66446667" lat="53.58139139">
                <ele>8</ele>
                <time>2013-03-19T17:37:35.804+01:00</time>
            </trkpt>
            <trkpt lon="9.66382806" lat="53.58180556">
                <ele>8</ele>
                <time>2013-03-19T17:37:53.804+01:00</time>
            </trkpt>
            <trkpt lon="9.66382139" lat="53.58181167">
                <ele>8</ele>
                <time>2013-03-19T17:37:53.804+01:00</time>
            </trkpt>
            <trkpt lon="9.66226612" lat="53.58267167">
                <ele>9</ele>
                <time>2013-03-19T17:38:36.804+01:00</time>
            </trkpt>
            <trkpt lon="9.65933667" lat="53.58366251">
                <ele>12</ele>
                <time>2013-03-19T17:39:55.804+01:00</time>
            </trkpt>
            <trkpt lon="9.65858695" lat="53.58383612">
                <ele>13</ele>
                <time>2013-03-19T17:40:15.804+01:00</time>
            </trkpt>
            <trkpt lon="9.65757056" lat="53.58420001">
                <ele>12</ele>
                <time>2013-03-19T17:40:42.804+01:00</time>
            </trkpt>
            <trkpt lon="9.65411806" lat="53.58589084">
                <ele>11</ele>
                <time>2013-03-19T17:42:17.804+01:00</time>
            </trkpt>
            <trkpt lon="9.65178223" lat="53.58714167">
                <ele>8</ele>
                <time>2013-03-19T17:43:21.804+01:00</time>
            </trkpt>
            <trkpt lon="9.65181223" lat="53.58714195">
                <ele>8</ele>
                <time>2013-03-19T17:43:21.804+01:00</time>
            </trkpt>
            <trkpt lon="9.64792889" lat="53.58910501">
                <ele>8</ele>
                <time>2013-03-19T17:45:08.804+01:00</time>
            </trkpt>
            <trkpt lon="9.64459695" lat="53.59059473">
                <ele>8</ele>
                <time>2013-03-19T17:46:39.804+01:00</time>
            </trkpt>
            <trkpt lon="9.64111639" lat="53.59207306">
                <ele>7</ele>
                <time>2013-03-19T17:48:14.804+01:00</time>
            </trkpt>
            <trkpt lon="9.63705167" lat="53.59360945">
                <ele>9</ele>
                <time>2013-03-19T17:50:04.804+01:00</time>
            </trkpt>
            <trkpt lon="9.63320945" lat="53.59499889">
                <ele>9</ele>
                <time>2013-03-19T17:51:48.804+01:00</time>
            </trkpt>
            <trkpt lon="9.62831667" lat="53.59655389">
                <ele>8</ele>
                <time>2013-03-19T17:53:59.804+01:00</time>
            </trkpt>
            <trkpt lon="9.62619389" lat="53.59722167">
                <ele>8</ele>
                <time>2013-03-19T17:54:56.804+01:00</time>
            </trkpt>
            <trkpt lon="9.62500723" lat="53.59754612">
                <ele>7</ele>
                <time>2013-03-19T17:55:27.804+01:00</time>
            </trkpt>
            <trkpt lon="9.62507612" lat="53.59754556">
                <ele>7</ele>
                <time>2013-03-19T17:55:28.804+01:00</time>
            </trkpt>
            <trkpt lon="9.61794917" lat="53.59960389">
                <ele>7</ele>
                <time>2013-03-19T17:58:39.804+01:00</time>
            </trkpt>
            <trkpt lon="9.60995251" lat="53.60181278">
                <ele>8</ele>
                <time>2013-03-19T18:02:13.804+01:00</time>
            </trkpt>
            <trkpt lon="9.60655473" lat="53.60283000">
                <ele>6</ele>
                <time>2013-03-19T18:03:44.804+01:00</time>
            </trkpt>
            <trkpt lon="9.60455667" lat="53.60346695">
                <ele>8</ele>
                <time>2013-03-19T18:04:38.804+01:00</time>
            </trkpt>
            <trkpt lon="9.60101501" lat="53.60489723">
                <ele>7</ele>
                <time>2013-03-19T18:06:14.804+01:00</time>
            </trkpt>
            <trkpt lon="9.60101501" lat="53.60489723">
                <ele>7</ele>
                <time>2013-03-19T18:06:14.804+01:00</time>
            </trkpt>
            <trkpt lon="9.59809306" lat="53.60616306">
                <ele>6</ele>
                <time>2013-03-19T18:07:33.804+01:00</time>
            </trkpt>
            <trkpt lon="9.59647528" lat="53.60712056">
                <ele>8</ele>
                <time>2013-03-19T18:08:18.804+01:00</time>
            </trkpt>
            <trkpt lon="9.59504000" lat="53.60825806">
                <ele>7</ele>
                <time>2013-03-19T18:09:00.804+01:00</time>
            </trkpt>
            <trkpt lon="9.59256750" lat="53.61027778">
                <ele>8</ele>
                <time>2013-03-19T18:10:13.804+01:00</time>
            </trkpt>
            <trkpt lon="9.59015084" lat="53.61225445">
                <ele>9</ele>
                <time>2013-03-19T18:11:24.804+01:00</time>
            </trkpt>
            <trkpt lon="9.58985862" lat="53.61291251">
                <ele>9</ele>
                <time>2013-03-19T18:11:36.804+01:00</time>
            </trkpt>
            <trkpt lon="9.58915723" lat="53.61317695">
                <ele>9</ele>
                <time>2013-03-19T18:11:55.804+01:00</time>
            </trkpt>
            <trkpt lon="9.58751000" lat="53.61493501">
                <ele>12</ele>
                <time>2013-03-19T18:12:47.804+01:00</time>
            </trkpt>
            <trkpt lon="9.58666362" lat="53.61598778">
                <ele>12</ele>
                <time>2013-03-19T18:13:14.804+01:00</time>
            </trkpt>
            <trkpt lon="9.58425667" lat="53.61980500">
                <ele>12</ele>
                <time>2013-03-19T18:14:41.804+01:00</time>
            </trkpt>
            <trkpt lon="9.58223112" lat="53.62276278">
                <ele>14</ele>
                <time>2013-03-19T18:15:52.804+01:00</time>
            </trkpt>
            <trkpt lon="9.58195084" lat="53.62347056">
                <ele>14</ele>
                <time>2013-03-19T18:16:05.804+01:00</time>
            </trkpt>
            <trkpt lon="9.58049834" lat="53.62579306">
                <ele>10</ele>
                <time>2013-03-19T18:16:58.804+01:00</time>
            </trkpt>
            <trkpt lon="9.57990806" lat="53.62669139">
                <ele>10</ele>
                <time>2013-03-19T18:17:19.804+01:00</time>
            </trkpt>
            <trkpt lon="9.57648667" lat="53.63224473">
                <ele>8</ele>
                <time>2013-03-19T18:19:24.804+01:00</time>
            </trkpt>
            <trkpt lon="9.57526917" lat="53.63393445">
                <ele>7</ele>
                <time>2013-03-19T18:20:05.804+01:00</time>
            </trkpt>
            <trkpt lon="9.57405945" lat="53.63545473">
                <ele>6</ele>
                <time>2013-03-19T18:20:44.804+01:00</time>
            </trkpt>
            <trkpt lon="9.57416223" lat="53.63600223">
                <ele>7</ele>
                <time>2013-03-19T18:20:53.804+01:00</time>
            </trkpt>
            <trkpt lon="9.57246167" lat="53.63726528">
                <ele>8</ele>
                <time>2013-03-19T18:21:42.804+01:00</time>
            </trkpt>
            <trkpt lon="9.57243112" lat="53.63725167">
                <ele>8</ele>
                <time>2013-03-19T18:21:42.804+01:00</time>
            </trkpt>
            <trkpt lon="9.57227278" lat="53.63738251">
                <ele>8</ele>
                <time>2013-03-19T18:21:46.804+01:00</time>
            </trkpt>
            <trkpt lon="9.57329473" lat="53.63832917">
                <ele>5</ele>
                <time>2013-03-19T18:22:16.804+01:00</time>
            </trkpt>
            <trkpt lon="9.57372251" lat="53.63894417">
                <ele>5</ele>
                <time>2013-03-19T18:22:30.804+01:00</time>
            </trkpt>
            <trkpt lon="9.57380445" lat="53.63943639">
                <ele>5</ele>
                <time>2013-03-19T18:22:38.804+01:00</time>
            </trkpt>
            <trkpt lon="9.57401584" lat="53.64020723">
                <ele>5</ele>
                <time>2013-03-19T18:22:51.804+01:00</time>
            </trkpt>
            <trkpt lon="9.57492278" lat="53.64099223">
                <ele>8</ele>
                <time>2013-03-19T18:23:18.804+01:00</time>
            </trkpt>
            <trkpt lon="9.57488195" lat="53.64103306">
                <ele>8</ele>
                <time>2013-03-19T18:23:19.804+01:00</time>
            </trkpt>
            <trkpt lon="9.57457889" lat="53.64144417">
                <ele>7</ele>
                <time>2013-03-19T18:23:29.804+01:00</time>
            </trkpt>
            <trkpt lon="9.57439445" lat="53.64219445">
                <ele>6</ele>
                <time>2013-03-19T18:23:41.804+01:00</time>
            </trkpt>
            <trkpt lon="9.57415639" lat="53.64262028">
                <ele>5</ele>
                <time>2013-03-19T18:23:50.804+01:00</time>
            </trkpt>
            <trkpt lon="9.57381056" lat="53.64301973">
                <ele>5</ele>
                <time>2013-03-19T18:24:01.804+01:00</time>
            </trkpt>
            <trkpt lon="9.57379667" lat="53.64302417">
                <ele>5</ele>
                <time>2013-03-19T18:24:01.804+01:00</time>
            </trkpt>
            <trkpt lon="9.57403389" lat="53.64349334">
                <ele>5</ele>
                <time>2013-03-19T18:24:10.804+01:00</time>
            </trkpt>
            <trkpt lon="9.57413667" lat="53.64405001">
                <ele>5</ele>
                <time>2013-03-19T18:24:19.804+01:00</time>
            </trkpt>
            <trkpt lon="9.57371223" lat="53.64500362">
                <ele>6</ele>
                <time>2013-03-19T18:24:37.804+01:00</time>
            </trkpt>
            <trkpt lon="9.57275639" lat="53.64582584">
                <ele>5</ele>
                <time>2013-03-19T18:25:05.804+01:00</time>
            </trkpt>
            <trkpt lon="9.57260167" lat="53.64613112">
                <ele>4</ele>
                <time>2013-03-19T18:25:11.804+01:00</time>
            </trkpt>
            <trkpt lon="9.57260528" lat="53.64647139">
                <ele>4</ele>
                <time>2013-03-19T18:25:16.804+01:00</time>
            </trkpt>
            <trkpt lon="9.57260278" lat="53.64649056">
                <ele>4</ele>
                <time>2013-03-19T18:25:16.804+01:00</time>
            </trkpt>
            <trkpt lon="9.57246139" lat="53.64681528">
                <ele>4</ele>
                <time>2013-03-19T18:25:22.804+01:00</time>
            </trkpt>
            <trkpt lon="9.57202667" lat="53.64730528">
                <ele>5</ele>
                <time>2013-03-19T18:25:36.804+01:00</time>
            </trkpt>
            <trkpt lon="9.57081251" lat="53.64789223">
                <ele>5</ele>
                <time>2013-03-19T18:26:09.804+01:00</time>
            </trkpt>
            <trkpt lon="9.56889195" lat="53.64826834">
                <ele>6</ele>
                <time>2013-03-19T18:27:00.804+01:00</time>
            </trkpt>
            <trkpt lon="9.56700417" lat="53.64834306">
                <ele>5</ele>
                <time>2013-03-19T18:27:50.804+01:00</time>
            </trkpt>
            <trkpt lon="9.56612945" lat="53.64850000">
                <ele>6</ele>
                <time>2013-03-19T18:28:13.804+01:00</time>
            </trkpt>
            <trkpt lon="9.56579751" lat="53.64914862">
                <ele>5</ele>
                <time>2013-03-19T18:28:26.804+01:00</time>
            </trkpt>
            <trkpt lon="9.56539001" lat="53.64939695">
                <ele>5</ele>
                <time>2013-03-19T18:28:37.804+01:00</time>
            </trkpt>
            <trkpt lon="9.56416362" lat="53.65011250">
                <ele>5</ele>
                <time>2013-03-19T18:29:11.804+01:00</time>
            </trkpt>
            <trkpt lon="9.56418889" lat="53.65010806">
                <ele>6</ele>
                <time>2013-03-19T18:29:11.804+01:00</time>
            </trkpt>
            <trkpt lon="9.56259973" lat="53.64986306">
                <ele>4</ele>
                <time>2013-03-19T18:29:53.804+01:00</time>
            </trkpt>
            <trkpt lon="9.56130862" lat="53.64966862">
                <ele>7</ele>
                <time>2013-03-19T18:30:28.804+01:00</time>
            </trkpt>
            <trkpt lon="9.56092806" lat="53.64995028">
                <ele>6</ele>
                <time>2013-03-19T18:30:39.804+01:00</time>
            </trkpt>
            <trkpt lon="9.55985001" lat="53.65000917">
                <ele>8</ele>
                <time>2013-03-19T18:31:08.804+01:00</time>
            </trkpt>
            <trkpt lon="9.55814334" lat="53.65033473">
                <ele>11</ele>
                <time>2013-03-19T18:31:54.804+01:00</time>
            </trkpt>
            <trkpt lon="9.55816750" lat="53.65030334">
                <ele>11</ele>
                <time>2013-03-19T18:31:54.804+01:00</time>
            </trkpt>
            <trkpt lon="9.55767723" lat="53.65298445">
                <ele>12</ele>
                <time>2013-03-19T18:32:38.804+01:00</time>
            </trkpt>
            <trkpt lon="9.55717000" lat="53.65618612">
                <ele>10</ele>
                <time>2013-03-19T18:33:30.804+01:00</time>
            </trkpt>
            <trkpt lon="9.55698500" lat="53.65780834">
                <ele>8</ele>
                <time>2013-03-19T18:33:55.804+01:00</time>
            </trkpt>
            <trkpt lon="9.55654223" lat="53.66078139">
                <ele>11</ele>
                <time>2013-03-19T18:34:43.804+01:00</time>
            </trkpt>
            <trkpt lon="9.55617834" lat="53.66289223">
                <ele>10</ele>
                <time>2013-03-19T18:35:17.804+01:00</time>
            </trkpt>
            <trkpt lon="9.55616028" lat="53.66301362">
                <ele>10</ele>
                <time>2013-03-19T18:35:18.804+01:00</time>
            </trkpt>
            <trkpt lon="9.55613889" lat="53.66302473">
                <ele>10</ele>
                <time>2013-03-19T18:35:18.804+01:00</time>
            </trkpt>
            <trkpt lon="9.55622389" lat="53.66428917">
                <ele>9</ele>
                <time>2013-03-19T18:35:37.804+01:00</time>
            </trkpt>
            <trkpt lon="9.55677306" lat="53.66427750">
                <ele>5</ele>
                <time>2013-03-19T18:35:51.804+01:00</time>
            </trkpt>
            <trkpt lon="9.55787306" lat="53.66421139">
                <ele>4</ele>
                <time>2013-03-19T18:36:20.804+01:00</time>
            </trkpt>
            <trkpt lon="9.56084667" lat="53.66409251">
                <ele>6</ele>
                <time>2013-03-19T18:37:39.804+01:00</time>
            </trkpt>
            <trkpt lon="9.56252806" lat="53.66391195">
                <ele>5</ele>
                <time>2013-03-19T18:38:23.804+01:00</time>
            </trkpt>
            <trkpt lon="9.56480306" lat="53.66352334">
                <ele>3</ele>
                <time>2013-03-19T18:39:23.804+01:00</time>
            </trkpt>
            <trkpt lon="9.56668834" lat="53.66312417">
                <ele>4</ele>
                <time>2013-03-19T18:40:13.804+01:00</time>
            </trkpt>
            <trkpt lon="9.56721500" lat="53.66316195">
                <ele>4</ele>
                <time>2013-03-19T18:40:26.804+01:00</time>
            </trkpt>
            <trkpt lon="9.56755056" lat="53.66370278">
                <ele>6</ele>
                <time>2013-03-19T18:40:38.804+01:00</time>
            </trkpt>
            <trkpt lon="9.56956195" lat="53.66475306">
                <ele>11</ele>
                <time>2013-03-19T18:41:34.804+01:00</time>
            </trkpt>
            <trkpt lon="9.57195334" lat="53.66596528">
                <ele>11</ele>
                <time>2013-03-19T18:42:40.804+01:00</time>
            </trkpt>
            <trkpt lon="9.57292945" lat="53.66632112">
                <ele>10</ele>
                <time>2013-03-19T18:43:06.804+01:00</time>
            </trkpt>
            <trkpt lon="9.57351084" lat="53.66626973">
                <ele>8</ele>
                <time>2013-03-19T18:43:21.804+01:00</time>
            </trkpt>
            <trkpt lon="9.57434473" lat="53.66665112">
                <ele>8</ele>
                <time>2013-03-19T18:43:43.804+01:00</time>
            </trkpt>
            <trkpt lon="9.57489112" lat="53.66705945">
                <ele>8</ele>
                <time>2013-03-19T18:43:58.804+01:00</time>
            </trkpt>
            <trkpt lon="9.57592000" lat="53.66752834">
                <ele>9</ele>
                <time>2013-03-19T18:44:26.804+01:00</time>
            </trkpt>
            <trkpt lon="9.57700889" lat="53.66811000">
                <ele>8</ele>
                <time>2013-03-19T18:44:56.804+01:00</time>
            </trkpt>
            <trkpt lon="9.57829945" lat="53.66863612">
                <ele>8</ele>
                <time>2013-03-19T18:45:31.804+01:00</time>
            </trkpt>
            <trkpt lon="9.58059139" lat="53.66935612">
                <ele>7</ele>
                <time>2013-03-19T18:46:32.804+01:00</time>
            </trkpt>
            <trkpt lon="9.58127278" lat="53.66963195">
                <ele>6</ele>
                <time>2013-03-19T18:46:50.804+01:00</time>
            </trkpt>
            <trkpt lon="9.58268917" lat="53.67000278">
                <ele>6</ele>
                <time>2013-03-19T18:47:27.804+01:00</time>
            </trkpt>
            <trkpt lon="9.58477195" lat="53.67059389">
                <ele>6</ele>
                <time>2013-03-19T18:48:22.804+01:00</time>
            </trkpt>
            <trkpt lon="9.58614056" lat="53.67081139">
                <ele>6</ele>
                <time>2013-03-19T18:48:58.804+01:00</time>
            </trkpt>
            <trkpt lon="9.58917834" lat="53.67108056">
                <ele>6</ele>
                <time>2013-03-19T18:50:18.804+01:00</time>
            </trkpt>
            <trkpt lon="9.59339223" lat="53.67205973">
                <ele>9</ele>
                <time>2013-03-19T18:52:11.804+01:00</time>
            </trkpt>
            <trkpt lon="9.59461667" lat="53.67238362">
                <ele>11</ele>
                <time>2013-03-19T18:52:44.804+01:00</time>
            </trkpt>
            <trkpt lon="9.59563306" lat="53.67286501">
                <ele>11</ele>
                <time>2013-03-19T18:53:11.804+01:00</time>
            </trkpt>
            <trkpt lon="9.59702417" lat="53.67330389">
                <ele>6</ele>
                <time>2013-03-19T18:53:48.804+01:00</time>
            </trkpt>
            <trkpt lon="9.59927028" lat="53.67357417">
                <ele>4</ele>
                <time>2013-03-19T18:54:47.804+01:00</time>
            </trkpt>
            <trkpt lon="9.60148889" lat="53.67360473">
                <ele>3</ele>
                <time>2013-03-19T18:55:45.804+01:00</time>
            </trkpt>
            <trkpt lon="9.60260334" lat="53.67384084">
                <ele>3</ele>
                <time>2013-03-19T18:56:14.804+01:00</time>
            </trkpt>
            <trkpt lon="9.60392862" lat="53.67374806">
                <ele>4</ele>
                <time>2013-03-19T18:56:49.804+01:00</time>
            </trkpt>
            <trkpt lon="9.60530528" lat="53.67335306">
                <ele>5</ele>
                <time>2013-03-19T18:57:26.804+01:00</time>
            </trkpt>
            <trkpt lon="9.60585584" lat="53.67318612">
                <ele>5</ele>
                <time>2013-03-19T18:57:40.804+01:00</time>
            </trkpt>
            <trkpt lon="9.60636001" lat="53.67308528">
                <ele>5</ele>
                <time>2013-03-19T18:57:53.804+01:00</time>
            </trkpt>
            <trkpt lon="9.60661862" lat="53.67308723">
                <ele>5</ele>
                <time>2013-03-19T18:57:59.804+01:00</time>
            </trkpt>
            <trkpt lon="9.60705750" lat="53.67282223">
                <ele>5</ele>
                <time>2013-03-19T18:58:11.804+01:00</time>
            </trkpt>
            <trkpt lon="9.60709195" lat="53.67281667">
                <ele>5</ele>
                <time>2013-03-19T18:58:11.804+01:00</time>
            </trkpt>
            <trkpt lon="9.60749167" lat="53.67320584">
                <ele>5</ele>
                <time>2013-03-19T18:58:23.804+01:00</time>
            </trkpt>
            <trkpt lon="9.60815778" lat="53.67421362">
                <ele>4</ele>
                <time>2013-03-19T18:58:46.804+01:00</time>
            </trkpt>
            <trkpt lon="9.60820306" lat="53.67517334">
                <ele>4</ele>
                <time>2013-03-19T18:59:01.804+01:00</time>
            </trkpt>
            <trkpt lon="9.60822750" lat="53.67557917">
                <ele>4</ele>
                <time>2013-03-19T18:59:07.804+01:00</time>
            </trkpt>
            <trkpt lon="9.60822778" lat="53.67559417">
                <ele>4</ele>
                <time>2013-03-19T18:59:07.804+01:00</time>
            </trkpt>
            <trkpt lon="9.60698556" lat="53.67582945">
                <ele>5</ele>
                <time>2013-03-19T18:59:40.804+01:00</time>
            </trkpt>
            <trkpt lon="9.60609195" lat="53.67582223">
                <ele>5</ele>
                <time>2013-03-19T19:00:03.804+01:00</time>
            </trkpt>
            <trkpt lon="9.60440834" lat="53.67571334">
                <ele>4</ele>
                <time>2013-03-19T19:00:47.804+01:00</time>
            </trkpt>
            <trkpt lon="9.60207500" lat="53.67556806">
                <ele>5</ele>
                <time>2013-03-19T19:01:49.804+01:00</time>
            </trkpt>
            <trkpt lon="9.59918889" lat="53.67539501">
                <ele>5</ele>
                <time>2013-03-19T19:03:05.804+01:00</time>
            </trkpt>
            <trkpt lon="9.59612334" lat="53.67519389">
                <ele>5</ele>
                <time>2013-03-19T19:04:26.804+01:00</time>
            </trkpt>
            <trkpt lon="9.59472584" lat="53.67532778">
                <ele>5</ele>
                <time>2013-03-19T19:05:03.804+01:00</time>
            </trkpt>
            <trkpt lon="9.59241889" lat="53.67509695">
                <ele>6</ele>
                <time>2013-03-19T19:06:04.804+01:00</time>
            </trkpt>
            <trkpt lon="9.59078223" lat="53.67487973">
                <ele>5</ele>
                <time>2013-03-19T19:06:47.804+01:00</time>
            </trkpt>
            <trkpt lon="9.58817139" lat="53.67444056">
                <ele>4</ele>
                <time>2013-03-19T19:07:56.804+01:00</time>
            </trkpt>
            <trkpt lon="9.58695917" lat="53.67425251">
                <ele>4</ele>
                <time>2013-03-19T19:08:28.804+01:00</time>
            </trkpt>
            <trkpt lon="9.58495528" lat="53.67403362">
                <ele>6</ele>
                <time>2013-03-19T19:09:21.804+01:00</time>
            </trkpt>
            <trkpt lon="9.58411167" lat="53.67439639">
                <ele>7</ele>
                <time>2013-03-19T19:09:44.804+01:00</time>
            </trkpt>
            <trkpt lon="9.58284084" lat="53.67549445">
                <ele>8</ele>
                <time>2013-03-19T19:10:22.804+01:00</time>
            </trkpt>
            <trkpt lon="9.58040612" lat="53.67779195">
                <ele>7</ele>
                <time>2013-03-19T19:11:35.804+01:00</time>
            </trkpt>
            <trkpt lon="9.57891334" lat="53.67934028">
                <ele>7</ele>
                <time>2013-03-19T19:12:21.804+01:00</time>
            </trkpt>
            <trkpt lon="9.57752362" lat="53.68085334">
                <ele>7</ele>
                <time>2013-03-19T19:13:04.804+01:00</time>
            </trkpt>
            <trkpt lon="9.57591862" lat="53.68250334">
                <ele>6</ele>
                <time>2013-03-19T19:13:53.804+01:00</time>
            </trkpt>
            <trkpt lon="9.57561612" lat="53.68283306">
                <ele>6</ele>
                <time>2013-03-19T19:14:02.804+01:00</time>
            </trkpt>
            <trkpt lon="9.57523028" lat="53.68293362">
                <ele>6</ele>
                <time>2013-03-19T19:14:12.804+01:00</time>
            </trkpt>
            <trkpt lon="9.57458112" lat="53.68301862">
                <ele>6</ele>
                <time>2013-03-19T19:14:29.804+01:00</time>
            </trkpt>
            <trkpt lon="9.57479834" lat="53.68271389">
                <ele>6</ele>
                <time>2013-03-19T19:14:36.804+01:00</time>
            </trkpt>
            <trkpt lon="9.57510112" lat="53.68238445">
                <ele>6</ele>
                <time>2013-03-19T19:14:45.804+01:00</time>
            </trkpt>
            <trkpt lon="9.57503417" lat="53.68218417">
                <ele>6</ele>
                <time>2013-03-19T19:14:48.804+01:00</time>
            </trkpt>
            <trkpt lon="9.57426612" lat="53.68189556">
                <ele>8</ele>
                <time>2013-03-19T19:15:09.804+01:00</time>
            </trkpt>
            <trkpt lon="9.57210389" lat="53.68144917">
                <ele>6</ele>
                <time>2013-03-19T19:16:06.804+01:00</time>
            </trkpt>
            <trkpt lon="9.57036639" lat="53.68121834">
                <ele>6</ele>
                <time>2013-03-19T19:16:52.804+01:00</time>
            </trkpt>
            <trkpt lon="9.56980473" lat="53.68119223">
                <ele>6</ele>
                <time>2013-03-19T19:17:06.804+01:00</time>
            </trkpt>
            <trkpt lon="9.56966945" lat="53.68103251">
                <ele>6</ele>
                <time>2013-03-19T19:17:10.804+01:00</time>
            </trkpt>
            <trkpt lon="9.56724556" lat="53.67810084">
                <ele>11</ele>
                <time>2013-03-19T19:18:30.804+01:00</time>
            </trkpt>
            <trkpt lon="9.56569028" lat="53.67588917">
                <ele>9</ele>
                <time>2013-03-19T19:19:23.804+01:00</time>
            </trkpt>
            <trkpt lon="9.56460501" lat="53.67458084">
                <ele>7</ele>
                <time>2013-03-19T19:19:58.804+01:00</time>
            </trkpt>
            <trkpt lon="9.56441445" lat="53.67435973">
                <ele>8</ele>
                <time>2013-03-19T19:20:04.804+01:00</time>
            </trkpt>
            <trkpt lon="9.56381250" lat="53.67435584">
                <ele>9</ele>
                <time>2013-03-19T19:20:20.804+01:00</time>
            </trkpt>
            <trkpt lon="9.56104612" lat="53.67446167">
                <ele>5</ele>
                <time>2013-03-19T19:21:33.804+01:00</time>
            </trkpt>
            <trkpt lon="9.56053778" lat="53.67429112">
                <ele>5</ele>
                <time>2013-03-19T19:21:46.804+01:00</time>
            </trkpt>
            <trkpt lon="9.55992862" lat="53.67433556">
                <ele>5</ele>
                <time>2013-03-19T19:22:02.804+01:00</time>
            </trkpt>
            <trkpt lon="9.55941473" lat="53.67428806">
                <ele>6</ele>
                <time>2013-03-19T19:22:15.804+01:00</time>
            </trkpt>
            <trkpt lon="9.55901417" lat="53.67390750">
                <ele>6</ele>
                <time>2013-03-19T19:22:27.804+01:00</time>
            </trkpt>
            <trkpt lon="9.55894723" lat="53.67352056">
                <ele>5</ele>
                <time>2013-03-19T19:22:33.804+01:00</time>
            </trkpt>
            <trkpt lon="9.55844000" lat="53.67344473">
                <ele>6</ele>
                <time>2013-03-19T19:22:46.804+01:00</time>
            </trkpt>
            <trkpt lon="9.55841584" lat="53.67336306">
                <ele>6</ele>
                <time>2013-03-19T19:22:47.804+01:00</time>
            </trkpt>
            <trkpt lon="9.55691306" lat="53.67389195">
                <ele>7</ele>
                <time>2013-03-19T19:23:27.804+01:00</time>
            </trkpt>
            <trkpt lon="9.55518473" lat="53.67451973">
                <ele>9</ele>
                <time>2013-03-19T19:24:14.804+01:00</time>
            </trkpt>
            <trkpt lon="9.55469862" lat="53.67485445">
                <ele>8</ele>
                <time>2013-03-19T19:24:27.804+01:00</time>
            </trkpt>
            <trkpt lon="9.55426306" lat="53.67650306">
                <ele>15</ele>
                <time>2013-03-19T19:24:57.804+01:00</time>
            </trkpt>
            <trkpt lon="9.55380112" lat="53.67841945">
                <ele>15</ele>
                <time>2013-03-19T19:25:29.804+01:00</time>
            </trkpt>
            <trkpt lon="9.55339001" lat="53.67970195">
                <ele>13</ele>
                <time>2013-03-19T19:25:51.804+01:00</time>
            </trkpt>
            <trkpt lon="9.55223889" lat="53.68231195">
                <ele>14</ele>
                <time>2013-03-19T19:26:42.804+01:00</time>
            </trkpt>
            <trkpt lon="9.55152306" lat="53.68383723">
                <ele>12</ele>
                <time>2013-03-19T19:27:12.804+01:00</time>
            </trkpt>
            <trkpt lon="9.55044806" lat="53.68590695">
                <ele>10</ele>
                <time>2013-03-19T19:27:55.804+01:00</time>
            </trkpt>
            <trkpt lon="9.54959612" lat="53.68717112">
                <ele>11</ele>
                <time>2013-03-19T19:28:25.804+01:00</time>
            </trkpt>
            <trkpt lon="9.54774750" lat="53.68969945">
                <ele>10</ele>
                <time>2013-03-19T19:29:28.804+01:00</time>
            </trkpt>
            <trkpt lon="9.54642362" lat="53.69140917">
                <ele>9</ele>
                <time>2013-03-19T19:30:12.804+01:00</time>
            </trkpt>
            <trkpt lon="9.54525139" lat="53.69295612">
                <ele>11</ele>
                <time>2013-03-19T19:30:51.804+01:00</time>
            </trkpt>
            <trkpt lon="9.54366389" lat="53.69507473">
                <ele>8</ele>
                <time>2013-03-19T19:31:44.804+01:00</time>
            </trkpt>
            <trkpt lon="9.54235306" lat="53.69687028">
                <ele>7</ele>
                <time>2013-03-19T19:32:28.804+01:00</time>
            </trkpt>
            <trkpt lon="9.54082723" lat="53.69877834">
                <ele>8</ele>
                <time>2013-03-19T19:33:18.804+01:00</time>
            </trkpt>
            <trkpt lon="9.53912167" lat="53.70067417">
                <ele>8</ele>
                <time>2013-03-19T19:34:12.804+01:00</time>
            </trkpt>
            <trkpt lon="9.53751223" lat="53.70236000">
                <ele>9</ele>
                <time>2013-03-19T19:35:02.804+01:00</time>
            </trkpt>
            <trkpt lon="9.53412389" lat="53.70558584">
                <ele>8</ele>
                <time>2013-03-19T19:36:45.804+01:00</time>
            </trkpt>
            <trkpt lon="9.53126500" lat="53.70832806">
                <ele>7</ele>
                <time>2013-03-19T19:38:12.804+01:00</time>
            </trkpt>
            <trkpt lon="9.52790778" lat="53.71134473">
                <ele>9</ele>
                <time>2013-03-19T19:39:53.804+01:00</time>
            </trkpt>
            <trkpt lon="9.52662195" lat="53.71284251">
                <ele>7</ele>
                <time>2013-03-19T19:40:34.804+01:00</time>
            </trkpt>
            <trkpt lon="9.52643667" lat="53.71354028">
                <ele>6</ele>
                <time>2013-03-19T19:40:45.804+01:00</time>
            </trkpt>
            <trkpt lon="9.52653167" lat="53.71420417">
                <ele>7</ele>
                <time>2013-03-19T19:40:55.804+01:00</time>
            </trkpt>
            <trkpt lon="9.52656778" lat="53.71427806">
                <ele>7</ele>
                <time>2013-03-19T19:40:56.804+01:00</time>
            </trkpt>
            <trkpt lon="9.52853028" lat="53.71363973">
                <ele>6</ele>
                <time>2013-03-19T19:41:48.804+01:00</time>
            </trkpt>
            <trkpt lon="9.52941250" lat="53.71269278">
                <ele>6</ele>
                <time>2013-03-19T19:42:15.804+01:00</time>
            </trkpt>
            <trkpt lon="9.52973806" lat="53.71275584">
                <ele>6</ele>
                <time>2013-03-19T19:42:23.804+01:00</time>
            </trkpt>
            <trkpt lon="9.53247751" lat="53.71331251">
                <ele>7</ele>
                <time>2013-03-19T19:43:36.804+01:00</time>
            </trkpt>
            <trkpt lon="9.53346278" lat="53.71281612">
                <ele>6</ele>
                <time>2013-03-19T19:44:03.804+01:00</time>
            </trkpt>
            <trkpt lon="9.53539139" lat="53.71194278">
                <ele>6</ele>
                <time>2013-03-19T19:44:55.804+01:00</time>
            </trkpt>
            <trkpt lon="9.53615556" lat="53.71190945">
                <ele>6</ele>
                <time>2013-03-19T19:45:15.804+01:00</time>
            </trkpt>
            <trkpt lon="9.53822028" lat="53.71208528">
                <ele>7</ele>
                <time>2013-03-19T19:46:10.804+01:00</time>
            </trkpt>
            <trkpt lon="9.53990056" lat="53.71226417">
                <ele>6</ele>
                <time>2013-03-19T19:46:54.804+01:00</time>
            </trkpt>
            <trkpt lon="9.54252889" lat="53.71237917">
                <ele>6</ele>
                <time>2013-03-19T19:48:03.804+01:00</time>
            </trkpt>
            <trkpt lon="9.54730500" lat="53.71259056">
                <ele>6</ele>
                <time>2013-03-19T19:50:09.804+01:00</time>
            </trkpt>
            <trkpt lon="9.54833278" lat="53.71264056">
                <ele>5</ele>
                <time>2013-03-19T19:50:36.804+01:00</time>
            </trkpt>
            <trkpt lon="9.55078195" lat="53.71215278">
                <ele>11</ele>
                <time>2013-03-19T19:51:42.804+01:00</time>
            </trkpt>
            <trkpt lon="9.55101278" lat="53.71209917">
                <ele>12</ele>
                <time>2013-03-19T19:51:48.804+01:00</time>
            </trkpt>
            <trkpt lon="9.54997362" lat="53.71065945">
                <ele>8</ele>
                <time>2013-03-19T19:52:23.804+01:00</time>
            </trkpt>
            <trkpt lon="9.54978667" lat="53.71030139">
                <ele>7</ele>
                <time>2013-03-19T19:52:30.804+01:00</time>
            </trkpt>
            <trkpt lon="9.55024528" lat="53.71005473">
                <ele>7</ele>
                <time>2013-03-19T19:52:42.804+01:00</time>
            </trkpt>
            <trkpt lon="9.55164334" lat="53.70995751">
                <ele>6</ele>
                <time>2013-03-19T19:53:19.804+01:00</time>
            </trkpt>
            <trkpt lon="9.55266889" lat="53.70993751">
                <ele>6</ele>
                <time>2013-03-19T19:53:46.804+01:00</time>
            </trkpt>
            <trkpt lon="9.55283612" lat="53.70971528">
                <ele>7</ele>
                <time>2013-03-19T19:53:51.804+01:00</time>
            </trkpt>
            <trkpt lon="9.55362362" lat="53.70978251">
                <ele>8</ele>
                <time>2013-03-19T19:54:12.804+01:00</time>
            </trkpt>
            <trkpt lon="9.55365612" lat="53.70977084">
                <ele>8</ele>
                <time>2013-03-19T19:54:12.804+01:00</time>
            </trkpt>
            <trkpt lon="9.55399917" lat="53.71009195">
                <ele>7</ele>
                <time>2013-03-19T19:54:22.804+01:00</time>
            </trkpt>
            <trkpt lon="9.55416306" lat="53.71094306">
                <ele>10</ele>
                <time>2013-03-19T19:54:36.804+01:00</time>
            </trkpt>
            <trkpt lon="9.55416584" lat="53.71118056">
                <ele>10</ele>
                <time>2013-03-19T19:54:39.804+01:00</time>
            </trkpt>
            <trkpt lon="9.55477612" lat="53.71165751">
                <ele>7</ele>
                <time>2013-03-19T19:54:56.804+01:00</time>
            </trkpt>
            <trkpt lon="9.55557751" lat="53.71210723">
                <ele>8</ele>
                <time>2013-03-19T19:55:18.804+01:00</time>
            </trkpt>
            <trkpt lon="9.55702556" lat="53.71273223">
                <ele>7</ele>
                <time>2013-03-19T19:55:57.804+01:00</time>
            </trkpt>
            <trkpt lon="9.55838112" lat="53.71327889">
                <ele>8</ele>
                <time>2013-03-19T19:56:34.804+01:00</time>
            </trkpt>
            <trkpt lon="9.56017556" lat="53.71385167">
                <ele>10</ele>
                <time>2013-03-19T19:57:22.804+01:00</time>
            </trkpt>
            <trkpt lon="9.56262917" lat="53.71466417">
                <ele>5</ele>
                <time>2013-03-19T19:58:28.804+01:00</time>
            </trkpt>
            <trkpt lon="9.56435667" lat="53.71507667">
                <ele>5</ele>
                <time>2013-03-19T19:59:14.804+01:00</time>
            </trkpt>
            <trkpt lon="9.56625889" lat="53.71530556">
                <ele>5</ele>
                <time>2013-03-19T20:00:04.804+01:00</time>
            </trkpt>
            <trkpt lon="9.56788112" lat="53.71551556">
                <ele>6</ele>
                <time>2013-03-19T20:00:47.804+01:00</time>
            </trkpt>
            <trkpt lon="9.56802862" lat="53.71605639">
                <ele>6</ele>
                <time>2013-03-19T20:00:56.804+01:00</time>
            </trkpt>
            <trkpt lon="9.56931834" lat="53.71641167">
                <ele>7</ele>
                <time>2013-03-19T20:01:30.804+01:00</time>
            </trkpt>
            <trkpt lon="9.57005084" lat="53.71639167">
                <ele>6</ele>
                <time>2013-03-19T20:01:49.804+01:00</time>
            </trkpt>
            <trkpt lon="9.57060834" lat="53.71659362">
                <ele>5</ele>
                <time>2013-03-19T20:02:04.804+01:00</time>
            </trkpt>
            <trkpt lon="9.57166334" lat="53.71683056">
                <ele>7</ele>
                <time>2013-03-19T20:02:32.804+01:00</time>
            </trkpt>
            <trkpt lon="9.57409223" lat="53.71747806">
                <ele>8</ele>
                <time>2013-03-19T20:03:37.804+01:00</time>
            </trkpt>
            <trkpt lon="9.57504695" lat="53.71781528">
                <ele>7</ele>
                <time>2013-03-19T20:04:02.804+01:00</time>
            </trkpt>
            <trkpt lon="9.57590723" lat="53.71801000">
                <ele>6</ele>
                <time>2013-03-19T20:04:25.804+01:00</time>
            </trkpt>
            <trkpt lon="9.57638639" lat="53.71824223">
                <ele>6</ele>
                <time>2013-03-19T20:04:38.804+01:00</time>
            </trkpt>
            <trkpt lon="9.57658362" lat="53.71843917">
                <ele>6</ele>
                <time>2013-03-19T20:04:44.804+01:00</time>
            </trkpt>
            <trkpt lon="9.57661473" lat="53.71845750">
                <ele>6</ele>
                <time>2013-03-19T20:04:44.804+01:00</time>
            </trkpt>
            <trkpt lon="9.57700000" lat="53.71885584">
                <ele>7</ele>
                <time>2013-03-19T20:04:56.804+01:00</time>
            </trkpt>
            <trkpt lon="9.57806667" lat="53.71933362">
                <ele>7</ele>
                <time>2013-03-19T20:05:25.804+01:00</time>
            </trkpt>
            <trkpt lon="9.57919945" lat="53.71937417">
                <ele>6</ele>
                <time>2013-03-19T20:05:55.804+01:00</time>
            </trkpt>
            <trkpt lon="9.58032167" lat="53.71912750">
                <ele>7</ele>
                <time>2013-03-19T20:06:25.804+01:00</time>
            </trkpt>
            <trkpt lon="9.58072917" lat="53.71916001">
                <ele>8</ele>
                <time>2013-03-19T20:06:36.804+01:00</time>
            </trkpt>
            <trkpt lon="9.58166778" lat="53.71987751">
                <ele>8</ele>
                <time>2013-03-19T20:07:03.804+01:00</time>
            </trkpt>
            <trkpt lon="9.58252806" lat="53.72025278">
                <ele>9</ele>
                <time>2013-03-19T20:07:26.804+01:00</time>
            </trkpt>
            <trkpt lon="9.58341001" lat="53.72035278">
                <ele>9</ele>
                <time>2013-03-19T20:07:49.804+01:00</time>
            </trkpt>
            <trkpt lon="9.58432084" lat="53.72022445">
                <ele>8</ele>
                <time>2013-03-19T20:08:13.804+01:00</time>
            </trkpt>
            <trkpt lon="9.58527723" lat="53.72010473">
                <ele>8</ele>
                <time>2013-03-19T20:08:38.804+01:00</time>
            </trkpt>
            <trkpt lon="9.58642473" lat="53.72002473">
                <ele>7</ele>
                <time>2013-03-19T20:09:08.804+01:00</time>
            </trkpt>
            <trkpt lon="9.58671084" lat="53.71999778">
                <ele>8</ele>
                <time>2013-03-19T20:09:15.804+01:00</time>
            </trkpt>
            <trkpt lon="9.58669167" lat="53.72003278">
                <ele>7</ele>
                <time>2013-03-19T20:09:15.804+01:00</time>
            </trkpt>
            <trkpt lon="9.58690806" lat="53.72023445">
                <ele>7</ele>
                <time>2013-03-19T20:09:21.804+01:00</time>
            </trkpt>
            <trkpt lon="9.58710695" lat="53.72103084">
                <ele>7</ele>
                <time>2013-03-19T20:09:34.804+01:00</time>
            </trkpt>
            <trkpt lon="9.58716001" lat="53.72204695">
                <ele>8</ele>
                <time>2013-03-19T20:09:50.804+01:00</time>
            </trkpt>
            <trkpt lon="9.58752306" lat="53.72247612">
                <ele>9</ele>
                <time>2013-03-19T20:10:01.804+01:00</time>
            </trkpt>
            <trkpt lon="9.58845334" lat="53.72328389">
                <ele>10</ele>
                <time>2013-03-19T20:10:28.804+01:00</time>
            </trkpt>
            <trkpt lon="9.58936945" lat="53.72392334">
                <ele>10</ele>
                <time>2013-03-19T20:10:54.804+01:00</time>
            </trkpt>
            <trkpt lon="9.58936945" lat="53.72393362">
                <ele>10</ele>
                <time>2013-03-19T20:10:54.804+01:00</time>
            </trkpt>
            <trkpt lon="9.59013667" lat="53.72456334">
                <ele>10</ele>
                <time>2013-03-19T20:11:16.804+01:00</time>
            </trkpt>
            <trkpt lon="9.59115501" lat="53.72523695">
                <ele>10</ele>
                <time>2013-03-19T20:11:44.804+01:00</time>
            </trkpt>
            <trkpt lon="9.59262278" lat="53.72597889">
                <ele>8</ele>
                <time>2013-03-19T20:12:24.804+01:00</time>
            </trkpt>
            <trkpt lon="9.59535417" lat="53.72693556">
                <ele>8</ele>
                <time>2013-03-19T20:13:37.804+01:00</time>
            </trkpt>
            <trkpt lon="9.59783278" lat="53.72781862">
                <ele>8</ele>
                <time>2013-03-19T20:14:44.804+01:00</time>
            </trkpt>
            <trkpt lon="9.59940945" lat="53.72827889">
                <ele>9</ele>
                <time>2013-03-19T20:15:26.804+01:00</time>
            </trkpt>
            <trkpt lon="9.60068806" lat="53.72902389">
                <ele>9</ele>
                <time>2013-03-19T20:16:01.804+01:00</time>
            </trkpt>
            <trkpt lon="9.60192889" lat="53.72995056">
                <ele>6</ele>
                <time>2013-03-19T20:16:36.804+01:00</time>
            </trkpt>
            <trkpt lon="9.60402112" lat="53.73222112">
                <ele>5</ele>
                <time>2013-03-19T20:17:41.804+01:00</time>
            </trkpt>
            <trkpt lon="9.60572195" lat="53.73391278">
                <ele>14</ele>
                <time>2013-03-19T20:18:35.804+01:00</time>
            </trkpt>
            <trkpt lon="9.60738612" lat="53.73456084">
                <ele>8</ele>
                <time>2013-03-19T20:19:20.804+01:00</time>
            </trkpt>
            <trkpt lon="9.60995139" lat="53.73528778">
                <ele>13</ele>
                <time>2013-03-19T20:20:30.804+01:00</time>
            </trkpt>
            <trkpt lon="9.61167973" lat="53.73590112">
                <ele>12</ele>
                <time>2013-03-19T20:21:16.804+01:00</time>
            </trkpt>
            <trkpt lon="9.61230667" lat="53.73614139">
                <ele>11</ele>
                <time>2013-03-19T20:21:33.804+01:00</time>
            </trkpt>
            <trkpt lon="9.61272639" lat="53.73616362">
                <ele>11</ele>
                <time>2013-03-19T20:21:44.804+01:00</time>
            </trkpt>
            <trkpt lon="9.61436556" lat="53.73578723">
                <ele>7</ele>
                <time>2013-03-19T20:22:27.804+01:00</time>
            </trkpt>
            <trkpt lon="9.61442639" lat="53.73579528">
                <ele>7</ele>
                <time>2013-03-19T20:22:28.804+01:00</time>
            </trkpt>
            <trkpt lon="9.61486778" lat="53.73574806">
                <ele>7</ele>
                <time>2013-03-19T20:22:39.804+01:00</time>
            </trkpt>
            <trkpt lon="9.61524417" lat="53.73593889">
                <ele>7</ele>
                <time>2013-03-19T20:22:49.804+01:00</time>
            </trkpt>
            <trkpt lon="9.61581834" lat="53.73685528">
                <ele>10</ele>
                <time>2013-03-19T20:23:10.804+01:00</time>
            </trkpt>
            <trkpt lon="9.61647639" lat="53.73821973">
                <ele>8</ele>
                <time>2013-03-19T20:23:37.804+01:00</time>
            </trkpt>
            <trkpt lon="9.61700945" lat="53.73923334">
                <ele>5</ele>
                <time>2013-03-19T20:23:58.804+01:00</time>
            </trkpt>
            <trkpt lon="9.61735223" lat="53.73979667">
                <ele>6</ele>
                <time>2013-03-19T20:24:10.804+01:00</time>
            </trkpt>
            <trkpt lon="9.61789723" lat="53.74031251">
                <ele>11</ele>
                <time>2013-03-19T20:24:27.804+01:00</time>
            </trkpt>
            <trkpt lon="9.61903973" lat="53.74110445">
                <ele>10</ele>
                <time>2013-03-19T20:24:59.804+01:00</time>
            </trkpt>
            <trkpt lon="9.62046528" lat="53.74184084">
                <ele>8</ele>
                <time>2013-03-19T20:25:38.804+01:00</time>
            </trkpt>
            <trkpt lon="9.62106889" lat="53.74227639">
                <ele>9</ele>
                <time>2013-03-19T20:25:55.804+01:00</time>
            </trkpt>
            <trkpt lon="9.62149417" lat="53.74280473">
                <ele>9</ele>
                <time>2013-03-19T20:26:08.804+01:00</time>
            </trkpt>
            <trkpt lon="9.62149417" lat="53.74280473">
                <ele>9</ele>
                <time>2013-03-19T20:26:08.804+01:00</time>
            </trkpt>
            <trkpt lon="9.62207723" lat="53.74360806">
                <ele>10</ele>
                <time>2013-03-19T20:26:28.804+01:00</time>
            </trkpt>
            <trkpt lon="9.62247334" lat="53.74403028">
                <ele>10</ele>
                <time>2013-03-19T20:26:40.804+01:00</time>
            </trkpt>
            <trkpt lon="9.62410028" lat="53.74483501">
                <ele>9</ele>
                <time>2013-03-19T20:27:24.804+01:00</time>
            </trkpt>
            <trkpt lon="9.62499223" lat="53.74512612">
                <ele>11</ele>
                <time>2013-03-19T20:27:48.804+01:00</time>
            </trkpt>
            <trkpt lon="9.62577556" lat="53.74531612">
                <ele>9</ele>
                <time>2013-03-19T20:28:08.804+01:00</time>
            </trkpt>
            <trkpt lon="9.62655056" lat="53.74583167">
                <ele>6</ele>
                <time>2013-03-19T20:28:30.804+01:00</time>
            </trkpt>
            <trkpt lon="9.62759389" lat="53.74700834">
                <ele>7</ele>
                <time>2013-03-19T20:29:03.804+01:00</time>
            </trkpt>
            <trkpt lon="9.62873834" lat="53.74791973">
                <ele>8</ele>
                <time>2013-03-19T20:29:36.804+01:00</time>
            </trkpt>
            <trkpt lon="9.63098834" lat="53.74916834">
                <ele>17</ele>
                <time>2013-03-19T20:30:40.804+01:00</time>
            </trkpt>
            <trkpt lon="9.63297973" lat="53.75003167">
                <ele>7</ele>
                <time>2013-03-19T20:31:34.804+01:00</time>
            </trkpt>
            <trkpt lon="9.63432306" lat="53.75020028">
                <ele>6</ele>
                <time>2013-03-19T20:32:09.804+01:00</time>
            </trkpt>
            <trkpt lon="9.63523251" lat="53.74972889">
                <ele>8</ele>
                <time>2013-03-19T20:32:34.804+01:00</time>
            </trkpt>
            <trkpt lon="9.63585556" lat="53.74916139">
                <ele>9</ele>
                <time>2013-03-19T20:32:52.804+01:00</time>
            </trkpt>
            <trkpt lon="9.63652584" lat="53.74855695">
                <ele>9</ele>
                <time>2013-03-19T20:33:12.804+01:00</time>
            </trkpt>
            <trkpt lon="9.63747584" lat="53.74819667">
                <ele>8</ele>
                <time>2013-03-19T20:33:37.804+01:00</time>
            </trkpt>
            <trkpt lon="9.63868528" lat="53.74811584">
                <ele>7</ele>
                <time>2013-03-19T20:34:09.804+01:00</time>
            </trkpt>
            <trkpt lon="9.63935667" lat="53.74781389">
                <ele>8</ele>
                <time>2013-03-19T20:34:27.804+01:00</time>
            </trkpt>
            <trkpt lon="9.64041306" lat="53.74700223">
                <ele>7</ele>
                <time>2013-03-19T20:34:57.804+01:00</time>
            </trkpt>
            <trkpt lon="9.64130139" lat="53.74696084">
                <ele>7</ele>
                <time>2013-03-19T20:35:20.804+01:00</time>
            </trkpt>
            <trkpt lon="9.64210639" lat="53.74661834">
                <ele>9</ele>
                <time>2013-03-19T20:35:42.804+01:00</time>
            </trkpt>
            <trkpt lon="9.64236834" lat="53.74657000">
                <ele>9</ele>
                <time>2013-03-19T20:35:48.804+01:00</time>
            </trkpt>
            <trkpt lon="9.64368667" lat="53.74662806">
                <ele>9</ele>
                <time>2013-03-19T20:36:22.804+01:00</time>
            </trkpt>
            <trkpt lon="9.64513751" lat="53.74630362">
                <ele>13</ele>
                <time>2013-03-19T20:37:01.804+01:00</time>
            </trkpt>
            <trkpt lon="9.64563001" lat="53.74625445">
                <ele>12</ele>
                <time>2013-03-19T20:37:14.804+01:00</time>
            </trkpt>
            <trkpt lon="9.64584723" lat="53.74615556">
                <ele>13</ele>
                <time>2013-03-19T20:37:20.804+01:00</time>
            </trkpt>
            <trkpt lon="9.64651389" lat="53.74586389">
                <ele>13</ele>
                <time>2013-03-19T20:37:38.804+01:00</time>
            </trkpt>
            <trkpt lon="9.64697251" lat="53.74565639">
                <ele>14</ele>
                <time>2013-03-19T20:37:50.804+01:00</time>
            </trkpt>
            <trkpt lon="9.64972862" lat="53.74597973">
                <ele>15</ele>
                <time>2013-03-19T20:39:03.804+01:00</time>
            </trkpt>
            <trkpt lon="9.65117028" lat="53.74619834">
                <ele>14</ele>
                <time>2013-03-19T20:39:41.804+01:00</time>
            </trkpt>
            <trkpt lon="9.65184695" lat="53.74650084">
                <ele>12</ele>
                <time>2013-03-19T20:39:59.804+01:00</time>
            </trkpt>
            <trkpt lon="9.65195362" lat="53.74664000">
                <ele>11</ele>
                <time>2013-03-19T20:40:02.804+01:00</time>
            </trkpt>
            <trkpt lon="9.65195362" lat="53.74664000">
                <ele>11</ele>
                <time>2013-03-19T20:40:02.804+01:00</time>
            </trkpt>
            <trkpt lon="9.65348445" lat="53.74786250">
                <ele>16</ele>
                <time>2013-03-19T20:40:48.804+01:00</time>
            </trkpt>
            <trkpt lon="9.65356778" lat="53.74796945">
                <ele>16</ele>
                <time>2013-03-19T20:40:50.804+01:00</time>
            </trkpt>
            <trkpt lon="9.65291778" lat="53.74842612">
                <ele>19</ele>
                <time>2013-03-19T20:41:09.804+01:00</time>
            </trkpt>
            <trkpt lon="9.65259695" lat="53.74876223">
                <ele>21</ele>
                <time>2013-03-19T20:41:19.804+01:00</time>
            </trkpt>
            <trkpt lon="9.65255639" lat="53.74877028">
                <ele>21</ele>
                <time>2013-03-19T20:41:20.804+01:00</time>
            </trkpt>
            <trkpt lon="9.65212973" lat="53.74931445">
                <ele>19</ele>
                <time>2013-03-19T20:41:34.804+01:00</time>
            </trkpt>
            <trkpt lon="9.65212973" lat="53.74931445">
                <ele>19</ele>
                <time>2013-03-19T20:41:34.804+01:00</time>
            </trkpt>
            <trkpt lon="9.65157584" lat="53.75004278">
                <ele>16</ele>
                <time>2013-03-19T20:41:52.804+01:00</time>
            </trkpt>
            <trkpt lon="9.65146278" lat="53.75024223">
                <ele>15</ele>
                <time>2013-03-19T20:41:56.804+01:00</time>
            </trkpt>
            <trkpt lon="9.65337001" lat="53.75155167">
                <ele>18</ele>
                <time>2013-03-19T20:42:51.804+01:00</time>
            </trkpt>
            <trkpt lon="9.65450612" lat="53.75205750">
                <ele>20</ele>
                <time>2013-03-19T20:43:22.804+01:00</time>
            </trkpt>
            <trkpt lon="9.65438251" lat="53.75199417">
                <ele>20</ele>
                <time>2013-03-19T20:43:25.804+01:00</time>
            </trkpt>
            <trkpt lon="9.65505167" lat="53.75236167">
                <ele>20</ele>
                <time>2013-03-19T20:43:43.804+01:00</time>
            </trkpt>
            <trkpt lon="9.65461973" lat="53.75227389">
                <ele>20</ele>
                <time>2013-03-19T20:43:54.804+01:00</time>
            </trkpt>
            <trkpt lon="9.65421028" lat="53.75230000">
                <ele>20</ele>
                <time>2013-03-19T20:44:04.804+01:00</time>
            </trkpt>
            <trkpt lon="9.65318139" lat="53.75201639">
                <ele>19</ele>
                <time>2013-03-19T20:44:31.804+01:00</time>
            </trkpt>
            <trkpt lon="9.65166695" lat="53.75083417">
                <ele>20</ele>
                <time>2013-03-19T20:45:15.804+01:00</time>
            </trkpt>
            <trkpt lon="9.64997278" lat="53.75038084">
                <ele>13</ele>
                <time>2013-03-19T20:46:00.804+01:00</time>
            </trkpt>
            <trkpt lon="9.64884751" lat="53.75029084">
                <ele>9</ele>
                <time>2013-03-19T20:46:29.804+01:00</time>
            </trkpt>
            <trkpt lon="9.64762028" lat="53.75046278">
                <ele>9</ele>
                <time>2013-03-19T20:47:01.804+01:00</time>
            </trkpt>
            <trkpt lon="9.64569389" lat="53.75049362">
                <ele>7</ele>
                <time>2013-03-19T20:47:52.804+01:00</time>
            </trkpt>
            <trkpt lon="9.64413223" lat="53.75045695">
                <ele>9</ele>
                <time>2013-03-19T20:48:33.804+01:00</time>
            </trkpt>
            <trkpt lon="9.64285584" lat="53.75061973">
                <ele>10</ele>
                <time>2013-03-19T20:49:07.804+01:00</time>
            </trkpt>
            <trkpt lon="9.64205084" lat="53.75093723">
                <ele>9</ele>
                <time>2013-03-19T20:49:28.804+01:00</time>
            </trkpt>
            <trkpt lon="9.64116612" lat="53.75159334">
                <ele>8</ele>
                <time>2013-03-19T20:49:53.804+01:00</time>
            </trkpt>
            <trkpt lon="9.64094389" lat="53.75213278">
                <ele>9</ele>
                <time>2013-03-19T20:50:03.804+01:00</time>
            </trkpt>
            <trkpt lon="9.64094445" lat="53.75348695">
                <ele>7</ele>
                <time>2013-03-19T20:50:24.804+01:00</time>
            </trkpt>
            <trkpt lon="9.64097806" lat="53.75402862">
                <ele>10</ele>
                <time>2013-03-19T20:50:33.804+01:00</time>
            </trkpt>
            <trkpt lon="9.63970389" lat="53.75411000">
                <ele>9</ele>
                <time>2013-03-19T20:51:06.804+01:00</time>
            </trkpt>
            <trkpt lon="9.63970389" lat="53.75411000">
                <ele>9</ele>
                <time>2013-03-19T20:51:06.804+01:00</time>
            </trkpt>
            <trkpt lon="9.63862667" lat="53.75394306">
                <ele>10</ele>
                <time>2013-03-19T20:51:34.804+01:00</time>
            </trkpt>
            <trkpt lon="9.63703000" lat="53.75383167">
                <ele>8</ele>
                <time>2013-03-19T20:52:16.804+01:00</time>
            </trkpt>
            <trkpt lon="9.63600917" lat="53.75376778">
                <ele>8</ele>
                <time>2013-03-19T20:52:43.804+01:00</time>
            </trkpt>
            <trkpt lon="9.63474917" lat="53.75372667">
                <ele>7</ele>
                <time>2013-03-19T20:53:16.804+01:00</time>
            </trkpt>
            <trkpt lon="9.63338139" lat="53.75356167">
                <ele>8</ele>
                <time>2013-03-19T20:53:52.804+01:00</time>
            </trkpt>
            <trkpt lon="9.63357001" lat="53.75349723">
                <ele>8</ele>
                <time>2013-03-19T20:53:57.804+01:00</time>
            </trkpt>
            <trkpt lon="9.63151028" lat="53.75293778">
                <ele>10</ele>
                <time>2013-03-19T20:54:52.804+01:00</time>
            </trkpt>
            <trkpt lon="9.63000806" lat="53.75224834">
                <ele>8</ele>
                <time>2013-03-19T20:55:33.804+01:00</time>
            </trkpt>
            <trkpt lon="9.62924806" lat="53.75193889">
                <ele>12</ele>
                <time>2013-03-19T20:55:54.804+01:00</time>
            </trkpt>
            <trkpt lon="9.62851195" lat="53.75167750">
                <ele>9</ele>
                <time>2013-03-19T20:56:13.804+01:00</time>
            </trkpt>
            <trkpt lon="9.62802556" lat="53.75138028">
                <ele>8</ele>
                <time>2013-03-19T20:56:26.804+01:00</time>
            </trkpt>
            <trkpt lon="9.62761112" lat="53.75160889">
                <ele>7</ele>
                <time>2013-03-19T20:56:37.804+01:00</time>
            </trkpt>
            <trkpt lon="9.62612667" lat="53.75059084">
                <ele>5</ele>
                <time>2013-03-19T20:57:19.804+01:00</time>
            </trkpt>
            <trkpt lon="9.62484028" lat="53.74978973">
                <ele>7</ele>
                <time>2013-03-19T20:57:55.804+01:00</time>
            </trkpt>
            <trkpt lon="9.62242167" lat="53.74878667">
                <ele>6</ele>
                <time>2013-03-19T20:59:00.804+01:00</time>
            </trkpt>
            <trkpt lon="9.62069945" lat="53.74825389">
                <ele>6</ele>
                <time>2013-03-19T20:59:46.804+01:00</time>
            </trkpt>
            <trkpt lon="9.61794306" lat="53.74756167">
                <ele>8</ele>
                <time>2013-03-19T21:01:00.804+01:00</time>
            </trkpt>
            <trkpt lon="9.61738473" lat="53.74741584">
                <ele>8</ele>
                <time>2013-03-19T21:01:14.804+01:00</time>
            </trkpt>
            <trkpt lon="9.61511945" lat="53.74628139">
                <ele>9</ele>
                <time>2013-03-19T21:02:16.804+01:00</time>
            </trkpt>
            <trkpt lon="9.61140167" lat="53.74447501">
                <ele>9</ele>
                <time>2013-03-19T21:03:58.804+01:00</time>
            </trkpt>
            <trkpt lon="9.60868056" lat="53.74355473">
                <ele>8</ele>
                <time>2013-03-19T21:05:11.804+01:00</time>
            </trkpt>
            <trkpt lon="9.60689389" lat="53.74283473">
                <ele>7</ele>
                <time>2013-03-19T21:05:59.804+01:00</time>
            </trkpt>
            <trkpt lon="9.60696417" lat="53.74253750">
                <ele>8</ele>
                <time>2013-03-19T21:06:04.804+01:00</time>
            </trkpt>
            <trkpt lon="9.60796945" lat="53.74162695">
                <ele>9</ele>
                <time>2013-03-19T21:06:34.804+01:00</time>
            </trkpt>
            <trkpt lon="9.60981195" lat="53.73994056">
                <ele>8</ele>
                <time>2013-03-19T21:07:29.804+01:00</time>
            </trkpt>
            <trkpt lon="9.61143889" lat="53.73837945">
                <ele>10</ele>
                <time>2013-03-19T21:08:19.804+01:00</time>
            </trkpt>
            <trkpt lon="9.61197917" lat="53.73783778">
                <ele>11</ele>
                <time>2013-03-19T21:08:35.804+01:00</time>
            </trkpt>
            <trkpt lon="9.61107389" lat="53.73725139">
                <ele>14</ele>
                <time>2013-03-19T21:09:01.804+01:00</time>
            </trkpt>
            <trkpt lon="9.61010417" lat="53.73668612">
                <ele>13</ele>
                <time>2013-03-19T21:09:28.804+01:00</time>
            </trkpt>
            <trkpt lon="9.60856695" lat="53.73598973">
                <ele>10</ele>
                <time>2013-03-19T21:10:10.804+01:00</time>
            </trkpt>
            <trkpt lon="9.60709139" lat="53.73566195">
                <ele>10</ele>
                <time>2013-03-19T21:10:49.804+01:00</time>
            </trkpt>
            <trkpt lon="9.60555778" lat="53.73520000">
                <ele>10</ele>
                <time>2013-03-19T21:11:30.804+01:00</time>
            </trkpt>
            <trkpt lon="9.60453334" lat="53.73476917">
                <ele>10</ele>
                <time>2013-03-19T21:11:57.804+01:00</time>
            </trkpt>
            <trkpt lon="9.60373250" lat="53.73422889">
                <ele>10</ele>
                <time>2013-03-19T21:12:19.804+01:00</time>
            </trkpt>
            <trkpt lon="9.60223084" lat="53.73339778">
                <ele>9</ele>
                <time>2013-03-19T21:13:00.804+01:00</time>
            </trkpt>
            <trkpt lon="9.60032639" lat="53.73260473">
                <ele>14</ele>
                <time>2013-03-19T21:13:53.804+01:00</time>
            </trkpt>
            <trkpt lon="9.59784584" lat="53.73171028">
                <ele>9</ele>
                <time>2013-03-19T21:15:00.804+01:00</time>
            </trkpt>
            <trkpt lon="9.59750862" lat="53.73128973">
                <ele>9</ele>
                <time>2013-03-19T21:15:11.804+01:00</time>
            </trkpt>
            <trkpt lon="9.59725139" lat="53.73071195">
                <ele>9</ele>
                <time>2013-03-19T21:15:22.804+01:00</time>
            </trkpt>
            <trkpt lon="9.59795973" lat="53.72990584">
                <ele>9</ele>
                <time>2013-03-19T21:15:44.804+01:00</time>
            </trkpt>
            <trkpt lon="9.59767473" lat="53.72975028">
                <ele>9</ele>
                <time>2013-03-19T21:15:51.804+01:00</time>
            </trkpt>
            <trkpt lon="9.59692889" lat="53.72959056">
                <ele>9</ele>
                <time>2013-03-19T21:16:10.804+01:00</time>
            </trkpt>
            <trkpt lon="9.59557417" lat="53.72918834">
                <ele>9</ele>
                <time>2013-03-19T21:16:46.804+01:00</time>
            </trkpt>
            <trkpt lon="9.59200001" lat="53.72839278">
                <ele>9</ele>
                <time>2013-03-19T21:18:21.804+01:00</time>
            </trkpt>
            <trkpt lon="9.58936639" lat="53.72782251">
                <ele>7</ele>
                <time>2013-03-19T21:19:31.804+01:00</time>
            </trkpt>
            <trkpt lon="9.58807584" lat="53.72775945">
                <ele>7</ele>
                <time>2013-03-19T21:20:05.804+01:00</time>
            </trkpt>
            <trkpt lon="9.58798028" lat="53.72748084">
                <ele>7</ele>
                <time>2013-03-19T21:20:10.804+01:00</time>
            </trkpt>
            <trkpt lon="9.58793223" lat="53.72750195">
                <ele>7</ele>
                <time>2013-03-19T21:20:11.804+01:00</time>
            </trkpt>
            <trkpt lon="9.58864028" lat="53.72673250">
                <ele>7</ele>
                <time>2013-03-19T21:20:33.804+01:00</time>
            </trkpt>
            <trkpt lon="9.58801084" lat="53.72619917">
                <ele>8</ele>
                <time>2013-03-19T21:20:51.804+01:00</time>
            </trkpt>
            <trkpt lon="9.58618723" lat="53.72520195">
                <ele>13</ele>
                <time>2013-03-19T21:21:42.804+01:00</time>
            </trkpt>
            <trkpt lon="9.58406362" lat="53.72418056">
                <ele>12</ele>
                <time>2013-03-19T21:22:40.804+01:00</time>
            </trkpt>
            <trkpt lon="9.58191501" lat="53.72324056">
                <ele>10</ele>
                <time>2013-03-19T21:23:38.804+01:00</time>
            </trkpt>
            <trkpt lon="9.58191501" lat="53.72324056">
                <ele>10</ele>
                <time>2013-03-19T21:23:38.804+01:00</time>
            </trkpt>
            <trkpt lon="9.58102973" lat="53.72282917">
                <ele>10</ele>
                <time>2013-03-19T21:24:02.804+01:00</time>
            </trkpt>
            <trkpt lon="9.57918806" lat="53.72236417">
                <ele>11</ele>
                <time>2013-03-19T21:24:51.804+01:00</time>
            </trkpt>
            <trkpt lon="9.57696056" lat="53.72160806">
                <ele>8</ele>
                <time>2013-03-19T21:25:51.804+01:00</time>
            </trkpt>
            <trkpt lon="9.57544389" lat="53.72109306">
                <ele>12</ele>
                <time>2013-03-19T21:26:32.804+01:00</time>
            </trkpt>
            <trkpt lon="9.57382584" lat="53.72053362">
                <ele>11</ele>
                <time>2013-03-19T21:27:15.804+01:00</time>
            </trkpt>
            <trkpt lon="9.57175306" lat="53.71982723">
                <ele>8</ele>
                <time>2013-03-19T21:28:11.804+01:00</time>
            </trkpt>
            <trkpt lon="9.57011528" lat="53.71967084">
                <ele>9</ele>
                <time>2013-03-19T21:28:54.804+01:00</time>
            </trkpt>
            <trkpt lon="9.56860389" lat="53.71954362">
                <ele>7</ele>
                <time>2013-03-19T21:29:34.804+01:00</time>
            </trkpt>
            <trkpt lon="9.56819834" lat="53.71930667">
                <ele>7</ele>
                <time>2013-03-19T21:29:45.804+01:00</time>
            </trkpt>
            <trkpt lon="9.56586417" lat="53.71975084">
                <ele>8</ele>
                <time>2013-03-19T21:30:47.804+01:00</time>
            </trkpt>
            <trkpt lon="9.56398556" lat="53.72037139">
                <ele>9</ele>
                <time>2013-03-19T21:31:37.804+01:00</time>
            </trkpt>
            <trkpt lon="9.56170167" lat="53.72081501">
                <ele>9</ele>
                <time>2013-03-19T21:32:37.804+01:00</time>
            </trkpt>
            <trkpt lon="9.55964500" lat="53.72131695">
                <ele>7</ele>
                <time>2013-03-19T21:33:32.804+01:00</time>
            </trkpt>
            <trkpt lon="9.55889334" lat="53.72155945">
                <ele>8</ele>
                <time>2013-03-19T21:33:52.804+01:00</time>
            </trkpt>
            <trkpt lon="9.55829445" lat="53.72193528">
                <ele>8</ele>
                <time>2013-03-19T21:34:08.804+01:00</time>
            </trkpt>
            <trkpt lon="9.55603195" lat="53.72209501">
                <ele>7</ele>
                <time>2013-03-19T21:35:08.804+01:00</time>
            </trkpt>
            <trkpt lon="9.55500945" lat="53.72209667">
                <ele>6</ele>
                <time>2013-03-19T21:35:35.804+01:00</time>
            </trkpt>
            <trkpt lon="9.55396917" lat="53.72209834">
                <ele>7</ele>
                <time>2013-03-19T21:36:02.804+01:00</time>
            </trkpt>
            <trkpt lon="9.55227889" lat="53.72218639">
                <ele>7</ele>
                <time>2013-03-19T21:36:46.804+01:00</time>
            </trkpt>
            <trkpt lon="9.54888195" lat="53.72277723">
                <ele>8</ele>
                <time>2013-03-19T21:38:16.804+01:00</time>
            </trkpt>
            <trkpt lon="9.54383139" lat="53.72368945">
                <ele>8</ele>
                <time>2013-03-19T21:40:30.804+01:00</time>
            </trkpt>
            <trkpt lon="9.54294112" lat="53.72389389">
                <ele>10</ele>
                <time>2013-03-19T21:40:54.804+01:00</time>
            </trkpt>
            <trkpt lon="9.54244556" lat="53.72426167">
                <ele>10</ele>
                <time>2013-03-19T21:41:08.804+01:00</time>
            </trkpt>
            <trkpt lon="9.54218528" lat="53.72522973">
                <ele>11</ele>
                <time>2013-03-19T21:41:24.804+01:00</time>
            </trkpt>
            <trkpt lon="9.54226306" lat="53.72587723">
                <ele>10</ele>
                <time>2013-03-19T21:41:34.804+01:00</time>
            </trkpt>
            <trkpt lon="9.54210778" lat="53.72675195">
                <ele>8</ele>
                <time>2013-03-19T21:41:48.804+01:00</time>
            </trkpt>
            <trkpt lon="9.54296889" lat="53.72801723">
                <ele>9</ele>
                <time>2013-03-19T21:42:18.804+01:00</time>
            </trkpt>
            <trkpt lon="9.54325139" lat="53.72857723">
                <ele>8</ele>
                <time>2013-03-19T21:42:29.804+01:00</time>
            </trkpt>
            <trkpt lon="9.54358973" lat="53.72897250">
                <ele>8</ele>
                <time>2013-03-19T21:42:39.804+01:00</time>
            </trkpt>
            <trkpt lon="9.54351973" lat="53.72892139">
                <ele>8</ele>
                <time>2013-03-19T21:42:41.804+01:00</time>
            </trkpt>
            <trkpt lon="9.54247334" lat="53.72917223">
                <ele>10</ele>
                <time>2013-03-19T21:43:09.804+01:00</time>
            </trkpt>
            <trkpt lon="9.54146834" lat="53.72964500">
                <ele>8</ele>
                <time>2013-03-19T21:43:36.804+01:00</time>
            </trkpt>
            <trkpt lon="9.54015501" lat="53.73028389">
                <ele>7</ele>
                <time>2013-03-19T21:44:12.804+01:00</time>
            </trkpt>
            <trkpt lon="9.53807862" lat="53.73128834">
                <ele>8</ele>
                <time>2013-03-19T21:45:09.804+01:00</time>
            </trkpt>
            <trkpt lon="9.53497056" lat="53.73258973">
                <ele>7</ele>
                <time>2013-03-19T21:46:33.804+01:00</time>
            </trkpt>
            <trkpt lon="9.53066334" lat="53.73376945">
                <ele>6</ele>
                <time>2013-03-19T21:48:28.804+01:00</time>
            </trkpt>
            <trkpt lon="9.52965001" lat="53.73380445">
                <ele>7</ele>
                <time>2013-03-19T21:48:55.804+01:00</time>
            </trkpt>
            <trkpt lon="9.52714084" lat="53.73380667">
                <ele>7</ele>
                <time>2013-03-19T21:50:01.804+01:00</time>
            </trkpt>
            <trkpt lon="9.52559195" lat="53.73384751">
                <ele>7</ele>
                <time>2013-03-19T21:50:42.804+01:00</time>
            </trkpt>
            <trkpt lon="9.52324112" lat="53.73413417">
                <ele>7</ele>
                <time>2013-03-19T21:51:44.804+01:00</time>
            </trkpt>
            <trkpt lon="9.52136084" lat="53.73454834">
                <ele>9</ele>
                <time>2013-03-19T21:52:34.804+01:00</time>
            </trkpt>
            <trkpt lon="9.52010639" lat="53.73488195">
                <ele>11</ele>
                <time>2013-03-19T21:53:08.804+01:00</time>
            </trkpt>
            <trkpt lon="9.51975528" lat="53.73497306">
                <ele>9</ele>
                <time>2013-03-19T21:53:17.804+01:00</time>
            </trkpt>
            <trkpt lon="9.51944695" lat="53.73426417">
                <ele>9</ele>
                <time>2013-03-19T21:53:30.804+01:00</time>
            </trkpt>
            <trkpt lon="9.51844473" lat="53.73279973">
                <ele>7</ele>
                <time>2013-03-19T21:54:05.804+01:00</time>
            </trkpt>
            <trkpt lon="9.51655112" lat="53.73059834">
                <ele>5</ele>
                <time>2013-03-19T21:55:05.804+01:00</time>
            </trkpt>
            <trkpt lon="9.51208584" lat="53.72554750">
                <ele>8</ele>
                <time>2013-03-19T21:57:28.804+01:00</time>
            </trkpt>
            <trkpt lon="9.51050473" lat="53.72376000">
                <ele>8</ele>
                <time>2013-03-19T21:58:18.804+01:00</time>
            </trkpt>
            <trkpt lon="9.50947001" lat="53.72263806">
                <ele>10</ele>
                <time>2013-03-19T21:58:51.804+01:00</time>
            </trkpt>
            <trkpt lon="9.50914639" lat="53.72251445">
                <ele>9</ele>
                <time>2013-03-19T21:58:59.804+01:00</time>
            </trkpt>
            <trkpt lon="9.50897528" lat="53.72251639">
                <ele>9</ele>
                <time>2013-03-19T21:59:03.804+01:00</time>
            </trkpt>
            <trkpt lon="9.50604723" lat="53.72321195">
                <ele>10</ele>
                <time>2013-03-19T22:00:21.804+01:00</time>
            </trkpt>
            <trkpt lon="9.50326889" lat="53.72384945">
                <ele>10</ele>
                <time>2013-03-19T22:01:35.804+01:00</time>
            </trkpt>
            <trkpt lon="9.49885223" lat="53.72447223">
                <ele>8</ele>
                <time>2013-03-19T22:03:32.804+01:00</time>
            </trkpt>
            <trkpt lon="9.49715945" lat="53.72490556">
                <ele>8</ele>
                <time>2013-03-19T22:04:17.804+01:00</time>
            </trkpt>
            <trkpt lon="9.49709306" lat="53.72478389">
                <ele>8</ele>
                <time>2013-03-19T22:04:19.804+01:00</time>
            </trkpt>
            <trkpt lon="9.49690778" lat="53.72463389">
                <ele>8</ele>
                <time>2013-03-19T22:04:24.804+01:00</time>
            </trkpt>
            <trkpt lon="9.49655473" lat="53.72456584">
                <ele>8</ele>
                <time>2013-03-19T22:04:33.804+01:00</time>
            </trkpt>
            <trkpt lon="9.49448500" lat="53.72453723">
                <ele>7</ele>
                <time>2013-03-19T22:05:27.804+01:00</time>
            </trkpt>
            <trkpt lon="9.49331251" lat="53.72479056">
                <ele>7</ele>
                <time>2013-03-19T22:05:58.804+01:00</time>
            </trkpt>
            <trkpt lon="9.49058834" lat="53.72549251">
                <ele>4</ele>
                <time>2013-03-19T22:07:11.804+01:00</time>
            </trkpt>
            <trkpt lon="9.48848028" lat="53.72603362">
                <ele>5</ele>
                <time>2013-03-19T22:08:07.804+01:00</time>
            </trkpt>
            <trkpt lon="9.48514334" lat="53.72687667">
                <ele>8</ele>
                <time>2013-03-19T22:09:37.804+01:00</time>
            </trkpt>
            <trkpt lon="9.48124695" lat="53.72778445">
                <ele>11</ele>
                <time>2013-03-19T22:11:21.804+01:00</time>
            </trkpt>
            <trkpt lon="9.47826862" lat="53.72847695">
                <ele>9</ele>
                <time>2013-03-19T22:12:40.804+01:00</time>
            </trkpt>
            <trkpt lon="9.47258334" lat="53.72964806">
                <ele>9</ele>
                <time>2013-03-19T22:15:11.804+01:00</time>
            </trkpt>
            <trkpt lon="9.47090612" lat="53.72999389">
                <ele>9</ele>
                <time>2013-03-19T22:15:55.804+01:00</time>
            </trkpt>
            <trkpt lon="9.46904945" lat="53.73046778">
                <ele>7</ele>
                <time>2013-03-19T22:16:44.804+01:00</time>
            </trkpt>
            <trkpt lon="9.46706639" lat="53.73085223">
                <ele>8</ele>
                <time>2013-03-19T22:17:37.804+01:00</time>
            </trkpt>
            <trkpt lon="9.46534500" lat="53.73109584">
                <ele>8</ele>
                <time>2013-03-19T22:18:22.804+01:00</time>
            </trkpt>
            <trkpt lon="9.46368973" lat="53.73131751">
                <ele>7</ele>
                <time>2013-03-19T22:19:06.804+01:00</time>
            </trkpt>
            <trkpt lon="9.46137195" lat="53.73173223">
                <ele>6</ele>
                <time>2013-03-19T22:20:07.804+01:00</time>
            </trkpt>
            <trkpt lon="9.45989389" lat="53.73197362">
                <ele>6</ele>
                <time>2013-03-19T22:20:46.804+01:00</time>
            </trkpt>
            <trkpt lon="9.45830667" lat="53.73200834">
                <ele>6</ele>
                <time>2013-03-19T22:21:28.804+01:00</time>
            </trkpt>
            <trkpt lon="9.45653417" lat="53.73275750">
                <ele>5</ele>
                <time>2013-03-19T22:22:16.804+01:00</time>
            </trkpt>
            <trkpt lon="9.45457445" lat="53.73370334">
                <ele>5</ele>
                <time>2013-03-19T22:23:10.804+01:00</time>
            </trkpt>
            <trkpt lon="9.45448112" lat="53.73370139">
                <ele>5</ele>
                <time>2013-03-19T22:23:12.804+01:00</time>
            </trkpt>
            <trkpt lon="9.45335084" lat="53.73423639">
                <ele>5</ele>
                <time>2013-03-19T22:23:43.804+01:00</time>
            </trkpt>
            <trkpt lon="9.45179889" lat="53.73505473">
                <ele>5</ele>
                <time>2013-03-19T22:24:26.804+01:00</time>
            </trkpt>
            <trkpt lon="9.44957528" lat="53.73632778">
                <ele>5</ele>
                <time>2013-03-19T22:25:28.804+01:00</time>
            </trkpt>
            <trkpt lon="9.44875389" lat="53.73693251">
                <ele>5</ele>
                <time>2013-03-19T22:25:51.804+01:00</time>
            </trkpt>
            <trkpt lon="9.44620139" lat="53.73871750">
                <ele>5</ele>
                <time>2013-03-19T22:27:04.804+01:00</time>
            </trkpt>
            <trkpt lon="9.44452056" lat="53.73984945">
                <ele>7</ele>
                <time>2013-03-19T22:27:52.804+01:00</time>
            </trkpt>
            <trkpt lon="9.44206889" lat="53.74267667">
                <ele>8</ele>
                <time>2013-03-19T22:29:10.804+01:00</time>
            </trkpt>
            <trkpt lon="9.44063889" lat="53.74429723">
                <ele>7</ele>
                <time>2013-03-19T22:29:55.804+01:00</time>
            </trkpt>
            <trkpt lon="9.43991862" lat="53.74503945">
                <ele>6</ele>
                <time>2013-03-19T22:30:17.804+01:00</time>
            </trkpt>
            <trkpt lon="9.43847556" lat="53.74597556">
                <ele>6</ele>
                <time>2013-03-19T22:30:57.804+01:00</time>
            </trkpt>
            <trkpt lon="9.43867723" lat="53.74647695">
                <ele>6</ele>
                <time>2013-03-19T22:31:06.804+01:00</time>
            </trkpt>
            <trkpt lon="9.43847862" lat="53.74664139">
                <ele>6</ele>
                <time>2013-03-19T22:31:11.804+01:00</time>
            </trkpt>
            <trkpt lon="9.43804612" lat="53.74676667">
                <ele>5</ele>
                <time>2013-03-19T22:31:22.804+01:00</time>
            </trkpt>
            <trkpt lon="9.43731500" lat="53.74679389">
                <ele>5</ele>
                <time>2013-03-19T22:31:41.804+01:00</time>
            </trkpt>
            <trkpt lon="9.43711889" lat="53.74693973">
                <ele>5</ele>
                <time>2013-03-19T22:31:46.804+01:00</time>
            </trkpt>
            <trkpt lon="9.43708278" lat="53.74694667">
                <ele>5</ele>
                <time>2013-03-19T22:31:46.804+01:00</time>
            </trkpt>
            <trkpt lon="9.43598084" lat="53.74782889">
                <ele>7</ele>
                <time>2013-03-19T22:32:18.804+01:00</time>
            </trkpt>
            <trkpt lon="9.43552473" lat="53.74833195">
                <ele>7</ele>
                <time>2013-03-19T22:32:32.804+01:00</time>
            </trkpt>
            <trkpt lon="9.43542334" lat="53.74859528">
                <ele>7</ele>
                <time>2013-03-19T22:32:36.804+01:00</time>
            </trkpt>
            <trkpt lon="9.43452362" lat="53.74935889">
                <ele>7</ele>
                <time>2013-03-19T22:33:02.804+01:00</time>
            </trkpt>
            <trkpt lon="9.43323834" lat="53.75034584">
                <ele>7</ele>
                <time>2013-03-19T22:33:39.804+01:00</time>
            </trkpt>
            <trkpt lon="9.43230334" lat="53.75144112">
                <ele>8</ele>
                <time>2013-03-19T22:34:09.804+01:00</time>
            </trkpt>
            <trkpt lon="9.43233528" lat="53.75226334">
                <ele>8</ele>
                <time>2013-03-19T22:34:21.804+01:00</time>
            </trkpt>
            <trkpt lon="9.43348278" lat="53.75525139">
                <ele>13</ele>
                <time>2013-03-19T22:35:18.804+01:00</time>
            </trkpt>
            <trkpt lon="9.43369556" lat="53.75740889">
                <ele>14</ele>
                <time>2013-03-19T22:35:52.804+01:00</time>
            </trkpt>
            <trkpt lon="9.43372056" lat="53.75982445">
                <ele>12</ele>
                <time>2013-03-19T22:36:29.804+01:00</time>
            </trkpt>
            <trkpt lon="9.43305917" lat="53.76283501">
                <ele>9</ele>
                <time>2013-03-19T22:37:19.804+01:00</time>
            </trkpt>
            <trkpt lon="9.43143695" lat="53.76573945">
                <ele>8</ele>
                <time>2013-03-19T22:38:21.804+01:00</time>
            </trkpt>
            <trkpt lon="9.42861028" lat="53.76854445">
                <ele>9</ele>
                <time>2013-03-19T22:39:48.804+01:00</time>
            </trkpt>
            <trkpt lon="9.42563000" lat="53.77143195">
                <ele>8</ele>
                <time>2013-03-19T22:41:19.804+01:00</time>
            </trkpt>
            <trkpt lon="9.42385223" lat="53.77284973">
                <ele>8</ele>
                <time>2013-03-19T22:42:11.804+01:00</time>
            </trkpt>
            <trkpt lon="9.42148778" lat="53.77400528">
                <ele>9</ele>
                <time>2013-03-19T22:43:16.804+01:00</time>
            </trkpt>
            <trkpt lon="9.42028167" lat="53.77515167">
                <ele>9</ele>
                <time>2013-03-19T22:43:52.804+01:00</time>
            </trkpt>
            <trkpt lon="9.41795945" lat="53.77824862">
                <ele>8</ele>
                <time>2013-03-19T22:45:10.804+01:00</time>
            </trkpt>
            <trkpt lon="9.41632473" lat="53.78040223">
                <ele>6</ele>
                <time>2013-03-19T22:46:04.804+01:00</time>
            </trkpt>
            <trkpt lon="9.41484556" lat="53.78220417">
                <ele>6</ele>
                <time>2013-03-19T22:46:52.804+01:00</time>
            </trkpt>
            <trkpt lon="9.41405000" lat="53.78313639">
                <ele>6</ele>
                <time>2013-03-19T22:47:17.804+01:00</time>
            </trkpt>
            <trkpt lon="9.41349945" lat="53.78369251">
                <ele>6</ele>
                <time>2013-03-19T22:47:33.804+01:00</time>
            </trkpt>
            <trkpt lon="9.41349945" lat="53.78369251">
                <ele>6</ele>
                <time>2013-03-19T22:47:33.804+01:00</time>
            </trkpt>
            <trkpt lon="9.41402945" lat="53.78376389">
                <ele>6</ele>
                <time>2013-03-19T22:47:47.804+01:00</time>
            </trkpt>
            <trkpt lon="9.41440362" lat="53.78402278">
                <ele>6</ele>
                <time>2013-03-19T22:47:57.804+01:00</time>
            </trkpt>
            <trkpt lon="9.41490389" lat="53.78472334">
                <ele>6</ele>
                <time>2013-03-19T22:48:14.804+01:00</time>
            </trkpt>
            <trkpt lon="9.41542000" lat="53.78495500">
                <ele>5</ele>
                <time>2013-03-19T22:48:28.804+01:00</time>
            </trkpt>
            <trkpt lon="9.41575084" lat="53.78498362">
                <ele>5</ele>
                <time>2013-03-19T22:48:36.804+01:00</time>
            </trkpt>
            <trkpt lon="9.41575084" lat="53.78498362">
                <ele>5</ele>
                <time>2013-03-19T22:48:36.804+01:00</time>
            </trkpt>
            <trkpt lon="9.42184889" lat="53.78491112">
                <ele>6</ele>
                <time>2013-03-19T22:51:17.804+01:00</time>
            </trkpt>
            <trkpt lon="9.42546639" lat="53.78577028">
                <ele>8</ele>
                <time>2013-03-19T22:52:54.804+01:00</time>
            </trkpt>
            <trkpt lon="9.42514889" lat="53.78585195">
                <ele>8</ele>
                <time>2013-03-19T22:53:02.804+01:00</time>
            </trkpt>
            <trkpt lon="9.42476612" lat="53.78618445">
                <ele>8</ele>
                <time>2013-03-19T22:53:13.804+01:00</time>
            </trkpt>
            <trkpt lon="9.42494528" lat="53.78628000">
                <ele>8</ele>
                <time>2013-03-19T22:53:17.804+01:00</time>
            </trkpt>
            <trkpt lon="9.42320278" lat="53.78594862">
                <ele>8</ele>
                <time>2013-03-19T22:54:03.804+01:00</time>
            </trkpt>
            <trkpt lon="9.42194667" lat="53.78565167">
                <ele>8</ele>
                <time>2013-03-19T22:54:36.804+01:00</time>
            </trkpt>
            <trkpt lon="9.41924584" lat="53.78589750">
                <ele>9</ele>
                <time>2013-03-19T22:55:47.804+01:00</time>
            </trkpt>
            <trkpt lon="9.41789084" lat="53.78581112">
                <ele>7</ele>
                <time>2013-03-19T22:56:22.804+01:00</time>
            </trkpt>
            <trkpt lon="9.41737112" lat="53.78575501">
                <ele>6</ele>
                <time>2013-03-19T22:56:35.804+01:00</time>
            </trkpt>
            <trkpt lon="9.41664695" lat="53.78587084">
                <ele>6</ele>
                <time>2013-03-19T22:56:54.804+01:00</time>
            </trkpt>
            <trkpt lon="9.41667028" lat="53.78578500">
                <ele>6</ele>
                <time>2013-03-19T22:56:55.804+01:00</time>
            </trkpt>
            <trkpt lon="9.41646056" lat="53.78665612">
                <ele>6</ele>
                <time>2013-03-19T22:57:09.804+01:00</time>
            </trkpt>
            <trkpt lon="9.41642945" lat="53.78695306">
                <ele>7</ele>
                <time>2013-03-19T22:57:13.804+01:00</time>
            </trkpt>
            <trkpt lon="9.41471723" lat="53.78695917">
                <ele>9</ele>
                <time>2013-03-19T22:57:58.804+01:00</time>
            </trkpt>
            <trkpt lon="9.41434084" lat="53.78780084">
                <ele>8</ele>
                <time>2013-03-19T22:58:14.804+01:00</time>
            </trkpt>
            <trkpt lon="9.41439806" lat="53.78782028">
                <ele>8</ele>
                <time>2013-03-19T22:58:15.804+01:00</time>
            </trkpt>
            <trkpt lon="9.41399612" lat="53.78865195">
                <ele>9</ele>
                <time>2013-03-19T22:58:32.804+01:00</time>
            </trkpt>
            <trkpt lon="9.41307528" lat="53.79067112">
                <ele>10</ele>
                <time>2013-03-19T22:59:12.804+01:00</time>
            </trkpt>
            <trkpt lon="9.41217417" lat="53.79242473">
                <ele>10</ele>
                <time>2013-03-19T22:59:48.804+01:00</time>
            </trkpt>
            <trkpt lon="9.41094362" lat="53.79485584">
                <ele>11</ele>
                <time>2013-03-19T23:00:38.804+01:00</time>
            </trkpt>
            <trkpt lon="9.40921445" lat="53.79828000">
                <ele>9</ele>
                <time>2013-03-19T23:01:48.804+01:00</time>
            </trkpt>
            <trkpt lon="9.40897251" lat="53.79872667">
                <ele>10</ele>
                <time>2013-03-19T23:01:57.804+01:00</time>
            </trkpt>
            <trkpt lon="9.40897612" lat="53.79877806">
                <ele>10</ele>
                <time>2013-03-19T23:01:57.804+01:00</time>
            </trkpt>
            <trkpt lon="9.40721223" lat="53.80216473">
                <ele>9</ele>
                <time>2013-03-19T23:03:07.804+01:00</time>
            </trkpt>
            <trkpt lon="9.40632750" lat="53.80395334">
                <ele>10</ele>
                <time>2013-03-19T23:03:43.804+01:00</time>
            </trkpt>
            <trkpt lon="9.40632723" lat="53.80393278">
                <ele>10</ele>
                <time>2013-03-19T23:03:43.804+01:00</time>
            </trkpt>
            <trkpt lon="9.40537139" lat="53.80580362">
                <ele>10</ele>
                <time>2013-03-19T23:04:21.804+01:00</time>
            </trkpt>
            <trkpt lon="9.40450056" lat="53.80759250">
                <ele>8</ele>
                <time>2013-03-19T23:04:57.804+01:00</time>
            </trkpt>
            <trkpt lon="9.40391667" lat="53.80856139">
                <ele>8</ele>
                <time>2013-03-19T23:05:18.804+01:00</time>
            </trkpt>
            <trkpt lon="9.40336862" lat="53.80930778">
                <ele>8</ele>
                <time>2013-03-19T23:05:36.804+01:00</time>
            </trkpt>
            <trkpt lon="9.40296250" lat="53.80990223">
                <ele>8</ele>
                <time>2013-03-19T23:05:50.804+01:00</time>
            </trkpt>
            <trkpt lon="9.40302473" lat="53.80988223">
                <ele>8</ele>
                <time>2013-03-19T23:05:51.804+01:00</time>
            </trkpt>
            <trkpt lon="9.40272389" lat="53.80996473">
                <ele>8</ele>
                <time>2013-03-19T23:05:59.804+01:00</time>
            </trkpt>
            <trkpt lon="9.40205112" lat="53.81047112">
                <ele>8</ele>
                <time>2013-03-19T23:06:18.804+01:00</time>
            </trkpt>
            <trkpt lon="9.40140584" lat="53.81093667">
                <ele>9</ele>
                <time>2013-03-19T23:06:36.804+01:00</time>
            </trkpt>
            <trkpt lon="9.40030806" lat="53.81171056">
                <ele>10</ele>
                <time>2013-03-19T23:07:07.804+01:00</time>
            </trkpt>
            <trkpt lon="9.39664528" lat="53.81512945">
                <ele>9</ele>
                <time>2013-03-19T23:08:57.804+01:00</time>
            </trkpt>
            <trkpt lon="9.39503250" lat="53.81689112">
                <ele>12</ele>
                <time>2013-03-19T23:09:48.804+01:00</time>
            </trkpt>
            <trkpt lon="9.39509639" lat="53.81731139">
                <ele>16</ele>
                <time>2013-03-19T23:09:55.804+01:00</time>
            </trkpt>
            <trkpt lon="9.39534501" lat="53.81768250">
                <ele>16</ele>
                <time>2013-03-19T23:10:03.804+01:00</time>
            </trkpt>
            <trkpt lon="9.39680445" lat="53.81897945">
                <ele>17</ele>
                <time>2013-03-19T23:10:46.804+01:00</time>
            </trkpt>
            <trkpt lon="9.39853445" lat="53.82045695">
                <ele>12</ele>
                <time>2013-03-19T23:11:37.804+01:00</time>
            </trkpt>
            <trkpt lon="9.40114834" lat="53.82246139">
                <ele>14</ele>
                <time>2013-03-19T23:12:53.804+01:00</time>
            </trkpt>
            <trkpt lon="9.40184667" lat="53.82297584">
                <ele>12</ele>
                <time>2013-03-19T23:13:13.804+01:00</time>
            </trkpt>
            <trkpt lon="9.40230139" lat="53.82322445">
                <ele>10</ele>
                <time>2013-03-19T23:13:25.804+01:00</time>
            </trkpt>
            <trkpt lon="9.40312028" lat="53.82373917">
                <ele>8</ele>
                <time>2013-03-19T23:13:48.804+01:00</time>
            </trkpt>
            <trkpt lon="9.40407362" lat="53.82429889">
                <ele>8</ele>
                <time>2013-03-19T23:14:14.804+01:00</time>
            </trkpt>
            <trkpt lon="9.40415834" lat="53.82425334">
                <ele>8</ele>
                <time>2013-03-19T23:14:16.804+01:00</time>
            </trkpt>
            <trkpt lon="9.40061028" lat="53.82674389">
                <ele>6</ele>
                <time>2013-03-19T23:15:57.804+01:00</time>
            </trkpt>
            <trkpt lon="9.40007417" lat="53.82709084">
                <ele>7</ele>
                <time>2013-03-19T23:16:12.804+01:00</time>
            </trkpt>
            <trkpt lon="9.40002223" lat="53.82712167">
                <ele>7</ele>
                <time>2013-03-19T23:16:13.804+01:00</time>
            </trkpt>
            <trkpt lon="9.39849501" lat="53.82649778">
                <ele>10</ele>
                <time>2013-03-19T23:16:55.804+01:00</time>
            </trkpt>
            <trkpt lon="9.39840584" lat="53.82650834">
                <ele>10</ele>
                <time>2013-03-19T23:16:57.804+01:00</time>
            </trkpt>
            <trkpt lon="9.39678556" lat="53.82589334">
                <ele>10</ele>
                <time>2013-03-19T23:17:41.804+01:00</time>
            </trkpt>
            <trkpt lon="9.39424667" lat="53.82494834">
                <ele>6</ele>
                <time>2013-03-19T23:18:49.804+01:00</time>
            </trkpt>
            <trkpt lon="9.39277973" lat="53.82481306">
                <ele>5</ele>
                <time>2013-03-19T23:19:27.804+01:00</time>
            </trkpt>
            <trkpt lon="9.38982362" lat="53.82454362">
                <ele>5</ele>
                <time>2013-03-19T23:20:45.804+01:00</time>
            </trkpt>
            <trkpt lon="9.38893112" lat="53.82458223">
                <ele>5</ele>
                <time>2013-03-19T23:21:08.804+01:00</time>
            </trkpt>
            <trkpt lon="9.38801000" lat="53.82491750">
                <ele>8</ele>
                <time>2013-03-19T23:21:33.804+01:00</time>
            </trkpt>
            <trkpt lon="9.38799250" lat="53.82490723">
                <ele>8</ele>
                <time>2013-03-19T23:21:33.804+01:00</time>
            </trkpt>
            <trkpt lon="9.38706112" lat="53.82575334">
                <ele>10</ele>
                <time>2013-03-19T23:22:01.804+01:00</time>
            </trkpt>
            <trkpt lon="9.38582473" lat="53.82692667">
                <ele>10</ele>
                <time>2013-03-19T23:22:38.804+01:00</time>
            </trkpt>
            <trkpt lon="9.38479584" lat="53.82799639">
                <ele>10</ele>
                <time>2013-03-19T23:23:09.804+01:00</time>
            </trkpt>
            <trkpt lon="9.38334223" lat="53.82926862">
                <ele>9</ele>
                <time>2013-03-19T23:23:52.804+01:00</time>
            </trkpt>
            <trkpt lon="9.38168750" lat="53.83053334">
                <ele>7</ele>
                <time>2013-03-19T23:24:40.804+01:00</time>
            </trkpt>
            <trkpt lon="9.38002945" lat="53.83176417">
                <ele>8</ele>
                <time>2013-03-19T23:25:28.804+01:00</time>
            </trkpt>
            <trkpt lon="9.37924639" lat="53.83228362">
                <ele>8</ele>
                <time>2013-03-19T23:25:50.804+01:00</time>
            </trkpt>
            <trkpt lon="9.37902889" lat="53.83226556">
                <ele>8</ele>
                <time>2013-03-19T23:25:55.804+01:00</time>
            </trkpt>
            <trkpt lon="9.37780528" lat="53.83287556">
                <ele>8</ele>
                <time>2013-03-19T23:26:28.804+01:00</time>
            </trkpt>
            <trkpt lon="9.37740973" lat="53.83313167">
                <ele>9</ele>
                <time>2013-03-19T23:26:39.804+01:00</time>
            </trkpt>
            <trkpt lon="9.37694917" lat="53.83357001">
                <ele>8</ele>
                <time>2013-03-19T23:26:52.804+01:00</time>
            </trkpt>
            <trkpt lon="9.37609195" lat="53.83407834">
                <ele>8</ele>
                <time>2013-03-19T23:27:16.804+01:00</time>
            </trkpt>
            <trkpt lon="9.37544778" lat="53.83434195">
                <ele>9</ele>
                <time>2013-03-19T23:27:33.804+01:00</time>
            </trkpt>
            <trkpt lon="9.37449251" lat="53.83480112">
                <ele>10</ele>
                <time>2013-03-19T23:27:59.804+01:00</time>
            </trkpt>
            <trkpt lon="9.37407306" lat="53.83501167">
                <ele>11</ele>
                <time>2013-03-19T23:28:10.804+01:00</time>
            </trkpt>
            <trkpt lon="9.37410584" lat="53.83507750">
                <ele>11</ele>
                <time>2013-03-19T23:28:11.804+01:00</time>
            </trkpt>
            <trkpt lon="9.37403889" lat="53.83506862">
                <ele>11</ele>
                <time>2013-03-19T23:28:12.804+01:00</time>
            </trkpt>
            <trkpt lon="9.37164917" lat="53.83584223">
                <ele>10</ele>
                <time>2013-03-19T23:29:16.804+01:00</time>
            </trkpt>
            <trkpt lon="9.36929862" lat="53.83656501">
                <ele>11</ele>
                <time>2013-03-19T23:30:19.804+01:00</time>
            </trkpt>
            <trkpt lon="9.36744945" lat="53.83713167">
                <ele>10</ele>
                <time>2013-03-19T23:31:08.804+01:00</time>
            </trkpt>
            <trkpt lon="9.36626250" lat="53.83736778">
                <ele>10</ele>
                <time>2013-03-19T23:31:39.804+01:00</time>
            </trkpt>
            <trkpt lon="9.36380500" lat="53.83779834">
                <ele>9</ele>
                <time>2013-03-19T23:32:44.804+01:00</time>
            </trkpt>
            <trkpt lon="9.36117834" lat="53.83854723">
                <ele>8</ele>
                <time>2013-03-19T23:33:54.804+01:00</time>
            </trkpt>
            <trkpt lon="9.36001223" lat="53.83928584">
                <ele>10</ele>
                <time>2013-03-19T23:34:27.804+01:00</time>
            </trkpt>
            <trkpt lon="9.35725056" lat="53.84015667">
                <ele>9</ele>
                <time>2013-03-19T23:35:41.804+01:00</time>
            </trkpt>
            <trkpt lon="9.35564056" lat="53.84064695">
                <ele>8</ele>
                <time>2013-03-19T23:36:24.804+01:00</time>
            </trkpt>
            <trkpt lon="9.35396584" lat="53.84098695">
                <ele>8</ele>
                <time>2013-03-19T23:37:08.804+01:00</time>
            </trkpt>
            <trkpt lon="9.35267612" lat="53.84118834">
                <ele>8</ele>
                <time>2013-03-19T23:37:42.804+01:00</time>
            </trkpt>
            <trkpt lon="9.35106417" lat="53.84253223">
                <ele>10</ele>
                <time>2013-03-19T23:38:30.804+01:00</time>
            </trkpt>
            <trkpt lon="9.35044889" lat="53.84319945">
                <ele>9</ele>
                <time>2013-03-19T23:38:49.804+01:00</time>
            </trkpt>
            <trkpt lon="9.34910695" lat="53.84460501">
                <ele>7</ele>
                <time>2013-03-19T23:39:30.804+01:00</time>
            </trkpt>
            <trkpt lon="9.34753528" lat="53.84585084">
                <ele>7</ele>
                <time>2013-03-19T23:40:15.804+01:00</time>
            </trkpt>
            <trkpt lon="9.34591500" lat="53.84725445">
                <ele>9</ele>
                <time>2013-03-19T23:41:03.804+01:00</time>
            </trkpt>
            <trkpt lon="9.34491667" lat="53.84834251">
                <ele>8</ele>
                <time>2013-03-19T23:41:34.804+01:00</time>
            </trkpt>
            <trkpt lon="9.34375417" lat="53.84882973">
                <ele>9</ele>
                <time>2013-03-19T23:42:05.804+01:00</time>
            </trkpt>
            <trkpt lon="9.34262056" lat="53.84990362">
                <ele>10</ele>
                <time>2013-03-19T23:42:39.804+01:00</time>
            </trkpt>
            <trkpt lon="9.34162473" lat="53.85100306">
                <ele>10</ele>
                <time>2013-03-19T23:43:10.804+01:00</time>
            </trkpt>
            <trkpt lon="9.34076139" lat="53.85312667">
                <ele>7</ele>
                <time>2013-03-19T23:43:50.804+01:00</time>
            </trkpt>
            <trkpt lon="9.33994862" lat="53.85375556">
                <ele>7</ele>
                <time>2013-03-19T23:44:13.804+01:00</time>
            </trkpt>
            <trkpt lon="9.33879889" lat="53.85440667">
                <ele>6</ele>
                <time>2013-03-19T23:44:45.804+01:00</time>
            </trkpt>
            <trkpt lon="9.33807167" lat="53.85477056">
                <ele>6</ele>
                <time>2013-03-19T23:45:05.804+01:00</time>
            </trkpt>
            <trkpt lon="9.33667751" lat="53.85571056">
                <ele>6</ele>
                <time>2013-03-19T23:45:44.804+01:00</time>
            </trkpt>
            <trkpt lon="9.33536251" lat="53.85682334">
                <ele>7</ele>
                <time>2013-03-19T23:46:23.804+01:00</time>
            </trkpt>
            <trkpt lon="9.33491056" lat="53.85749417">
                <ele>7</ele>
                <time>2013-03-19T23:46:38.804+01:00</time>
            </trkpt>
            <trkpt lon="9.33430001" lat="53.85809417">
                <ele>7</ele>
                <time>2013-03-19T23:46:56.804+01:00</time>
            </trkpt>
            <trkpt lon="9.33238528" lat="53.85926556">
                <ele>6</ele>
                <time>2013-03-19T23:47:49.804+01:00</time>
            </trkpt>
            <trkpt lon="9.33125584" lat="53.86007389">
                <ele>6</ele>
                <time>2013-03-19T23:48:21.804+01:00</time>
            </trkpt>
            <trkpt lon="9.33085806" lat="53.86027723">
                <ele>6</ele>
                <time>2013-03-19T23:48:32.804+01:00</time>
            </trkpt>
            <trkpt lon="9.33070612" lat="53.86029223">
                <ele>6</ele>
                <time>2013-03-19T23:48:36.804+01:00</time>
            </trkpt>
            <trkpt lon="9.33019389" lat="53.85991639">
                <ele>7</ele>
                <time>2013-03-19T23:48:51.804+01:00</time>
            </trkpt>
            <trkpt lon="9.32976917" lat="53.86021445">
                <ele>7</ele>
                <time>2013-03-19T23:49:03.804+01:00</time>
            </trkpt>
            <trkpt lon="9.32950362" lat="53.86037223">
                <ele>7</ele>
                <time>2013-03-19T23:49:10.804+01:00</time>
            </trkpt>
            <trkpt lon="9.32892334" lat="53.86036945">
                <ele>7</ele>
                <time>2013-03-19T23:49:25.804+01:00</time>
            </trkpt>
            <trkpt lon="9.32824167" lat="53.86043278">
                <ele>7</ele>
                <time>2013-03-19T23:49:43.804+01:00</time>
            </trkpt>
            <trkpt lon="9.32696945" lat="53.86058889">
                <ele>7</ele>
                <time>2013-03-19T23:50:16.804+01:00</time>
            </trkpt>
            <trkpt lon="9.32696945" lat="53.86058889">
                <ele>7</ele>
                <time>2013-03-19T23:50:16.804+01:00</time>
            </trkpt>
            <trkpt lon="9.32481834" lat="53.86096139">
                <ele>7</ele>
                <time>2013-03-19T23:51:13.804+01:00</time>
            </trkpt>
            <trkpt lon="9.32116056" lat="53.86158112">
                <ele>8</ele>
                <time>2013-03-19T23:52:50.804+01:00</time>
            </trkpt>
            <trkpt lon="9.31940306" lat="53.86217084">
                <ele>9</ele>
                <time>2013-03-19T23:53:37.804+01:00</time>
            </trkpt>
            <trkpt lon="9.31748695" lat="53.86286778">
                <ele>7</ele>
                <time>2013-03-19T23:54:28.804+01:00</time>
            </trkpt>
            <trkpt lon="9.31605001" lat="53.86359139">
                <ele>5</ele>
                <time>2013-03-19T23:55:07.804+01:00</time>
            </trkpt>
            <trkpt lon="9.31521639" lat="53.86412195">
                <ele>5</ele>
                <time>2013-03-19T23:55:30.804+01:00</time>
            </trkpt>
            <trkpt lon="9.31279723" lat="53.86512473">
                <ele>6</ele>
                <time>2013-03-19T23:56:36.804+01:00</time>
            </trkpt>
            <trkpt lon="9.31037667" lat="53.86629306">
                <ele>6</ele>
                <time>2013-03-19T23:57:42.804+01:00</time>
            </trkpt>
            <trkpt lon="9.30630917" lat="53.86803389">
                <ele>5</ele>
                <time>2013-03-19T23:59:33.804+01:00</time>
            </trkpt>
            <trkpt lon="9.30328084" lat="53.86930695">
                <ele>5</ele>
                <time>2013-03-20T00:00:55.804+01:00</time>
            </trkpt>
            <trkpt lon="9.30231195" lat="53.86971473">
                <ele>5</ele>
                <time>2013-03-20T00:01:21.804+01:00</time>
            </trkpt>
            <trkpt lon="9.29312528" lat="53.87267723">
                <ele>4</ele>
                <time>2013-03-20T00:05:28.804+01:00</time>
            </trkpt>
            <trkpt lon="9.28983556" lat="53.87356556">
                <ele>6</ele>
                <time>2013-03-20T00:06:56.804+01:00</time>
            </trkpt>
            <trkpt lon="9.28546195" lat="53.87473584">
                <ele>6</ele>
                <time>2013-03-20T00:08:53.804+01:00</time>
            </trkpt>
            <trkpt lon="9.28029556" lat="53.87606139">
                <ele>5</ele>
                <time>2013-03-20T00:11:11.804+01:00</time>
            </trkpt>
            <trkpt lon="9.27692306" lat="53.87693778">
                <ele>7</ele>
                <time>2013-03-20T00:12:41.804+01:00</time>
            </trkpt>
            <trkpt lon="9.27566695" lat="53.87721112">
                <ele>6</ele>
                <time>2013-03-20T00:13:14.804+01:00</time>
            </trkpt>
            <trkpt lon="9.27412500" lat="53.87745084">
                <ele>5</ele>
                <time>2013-03-20T00:13:55.804+01:00</time>
            </trkpt>
            <trkpt lon="9.27321028" lat="53.87745306">
                <ele>5</ele>
                <time>2013-03-20T00:14:19.804+01:00</time>
            </trkpt>
            <trkpt lon="9.27183778" lat="53.87742251">
                <ele>4</ele>
                <time>2013-03-20T00:14:55.804+01:00</time>
            </trkpt>
            <trkpt lon="9.27029306" lat="53.87725723">
                <ele>5</ele>
                <time>2013-03-20T00:15:36.804+01:00</time>
            </trkpt>
            <trkpt lon="9.26623139" lat="53.87682667">
                <ele>7</ele>
                <time>2013-03-20T00:17:24.804+01:00</time>
            </trkpt>
            <trkpt lon="9.26457695" lat="53.87740473">
                <ele>6</ele>
                <time>2013-03-20T00:18:08.804+01:00</time>
            </trkpt>
            <trkpt lon="9.26235445" lat="53.87855834">
                <ele>7</ele>
                <time>2013-03-20T00:19:09.804+01:00</time>
            </trkpt>
            <trkpt lon="9.25933417" lat="53.88015278">
                <ele>5</ele>
                <time>2013-03-20T00:20:32.804+01:00</time>
            </trkpt>
            <trkpt lon="9.25734056" lat="53.88137306">
                <ele>7</ele>
                <time>2013-03-20T00:21:28.804+01:00</time>
            </trkpt>
            <trkpt lon="9.25597862" lat="53.88306528">
                <ele>6</ele>
                <time>2013-03-20T00:22:12.804+01:00</time>
            </trkpt>
            <trkpt lon="9.25524056" lat="53.88394500">
                <ele>6</ele>
                <time>2013-03-20T00:22:35.804+01:00</time>
            </trkpt>
            <trkpt lon="9.25450639" lat="53.88543306">
                <ele>6</ele>
                <time>2013-03-20T00:23:05.804+01:00</time>
            </trkpt>
            <trkpt lon="9.25394084" lat="53.88648139">
                <ele>7</ele>
                <time>2013-03-20T00:23:27.804+01:00</time>
            </trkpt>
            <trkpt lon="9.25343362" lat="53.88769889">
                <ele>8</ele>
                <time>2013-03-20T00:23:50.804+01:00</time>
            </trkpt>
            <trkpt lon="9.25332362" lat="53.88844223">
                <ele>8</ele>
                <time>2013-03-20T00:24:01.804+01:00</time>
            </trkpt>
            <trkpt lon="9.25326917" lat="53.88888139">
                <ele>8</ele>
                <time>2013-03-20T00:24:08.804+01:00</time>
            </trkpt>
            <trkpt lon="9.25325417" lat="53.88894028">
                <ele>7</ele>
                <time>2013-03-20T00:24:09.804+01:00</time>
            </trkpt>
            <trkpt lon="9.25312862" lat="53.88970528">
                <ele>7</ele>
                <time>2013-03-20T00:24:28.804+01:00</time>
            </trkpt>
            <trkpt lon="9.25270639" lat="53.89040278">
                <ele>9</ele>
                <time>2013-03-20T00:24:53.804+01:00</time>
            </trkpt>
            <trkpt lon="9.25140556" lat="53.89123889">
                <ele>7</ele>
                <time>2013-03-20T00:25:50.804+01:00</time>
            </trkpt>
            <trkpt lon="9.25065612" lat="53.89182612">
                <ele>6</ele>
                <time>2013-03-20T00:26:24.804+01:00</time>
            </trkpt>
            <trkpt lon="9.24890528" lat="53.89229445">
                <ele>5</ele>
                <time>2013-03-20T00:27:37.804+01:00</time>
            </trkpt>
            <trkpt lon="9.24839362" lat="53.89235667">
                <ele>6</ele>
                <time>2013-03-20T00:27:58.804+01:00</time>
            </trkpt>
            <trkpt lon="9.24756889" lat="53.89255528">
                <ele>7</ele>
                <time>2013-03-20T00:28:32.804+01:00</time>
            </trkpt>
            <trkpt lon="9.24592973" lat="53.89314278">
                <ele>6</ele>
                <time>2013-03-20T00:29:41.804+01:00</time>
            </trkpt>
            <trkpt lon="9.24442417" lat="53.89349806">
                <ele>6</ele>
                <time>2013-03-20T00:30:43.804+01:00</time>
            </trkpt>
            <trkpt lon="9.24225806" lat="53.89339723">
                <ele>6</ele>
                <time>2013-03-20T00:32:12.804+01:00</time>
            </trkpt>
            <trkpt lon="9.24018084" lat="53.89335417">
                <ele>6</ele>
                <time>2013-03-20T00:33:37.804+01:00</time>
            </trkpt>
            <trkpt lon="9.23905556" lat="53.89347139">
                <ele>6</ele>
                <time>2013-03-20T00:34:23.804+01:00</time>
            </trkpt>
            <trkpt lon="9.23819917" lat="53.89370945">
                <ele>6</ele>
                <time>2013-03-20T00:34:58.804+01:00</time>
            </trkpt>
            <trkpt lon="9.23819917" lat="53.89370945">
                <ele>6</ele>
                <time>2013-03-20T00:34:58.804+01:00</time>
            </trkpt>
            <trkpt lon="9.23714528" lat="53.89417028">
                <ele>7</ele>
                <time>2013-03-20T00:35:27.804+01:00</time>
            </trkpt>
            <trkpt lon="9.23488639" lat="53.89534223">
                <ele>6</ele>
                <time>2013-03-20T00:36:29.804+01:00</time>
            </trkpt>
            <trkpt lon="9.23504334" lat="53.89561028">
                <ele>6</ele>
                <time>2013-03-20T00:36:34.804+01:00</time>
            </trkpt>
            <trkpt lon="9.23484834" lat="53.89596334">
                <ele>6</ele>
                <time>2013-03-20T00:36:41.804+01:00</time>
            </trkpt>
            <trkpt lon="9.23391723" lat="53.89672501">
                <ele>6</ele>
                <time>2013-03-20T00:37:08.804+01:00</time>
            </trkpt>
            <trkpt lon="9.23322973" lat="53.89738945">
                <ele>6</ele>
                <time>2013-03-20T00:37:28.804+01:00</time>
            </trkpt>
            <trkpt lon="9.23309195" lat="53.89770139">
                <ele>6</ele>
                <time>2013-03-20T00:37:34.804+01:00</time>
            </trkpt>
            <trkpt lon="9.23313028" lat="53.89802278">
                <ele>6</ele>
                <time>2013-03-20T00:37:39.804+01:00</time>
            </trkpt>
            <trkpt lon="9.23109584" lat="53.89797556">
                <ele>6</ele>
                <time>2013-03-20T00:38:32.804+01:00</time>
            </trkpt>
            <trkpt lon="9.22782612" lat="53.89804445">
                <ele>6</ele>
                <time>2013-03-20T00:39:58.804+01:00</time>
            </trkpt>
            <trkpt lon="9.22594112" lat="53.89798834">
                <ele>6</ele>
                <time>2013-03-20T00:40:47.804+01:00</time>
            </trkpt>
            <trkpt lon="9.22465362" lat="53.89808223">
                <ele>5</ele>
                <time>2013-03-20T00:41:21.804+01:00</time>
            </trkpt>
            <trkpt lon="9.22269306" lat="53.89805945">
                <ele>6</ele>
                <time>2013-03-20T00:42:13.804+01:00</time>
            </trkpt>
            <trkpt lon="9.22092667" lat="53.89790000">
                <ele>6</ele>
                <time>2013-03-20T00:42:59.804+01:00</time>
            </trkpt>
            <trkpt lon="9.22054778" lat="53.89832139">
                <ele>7</ele>
                <time>2013-03-20T00:43:11.804+01:00</time>
            </trkpt>
            <trkpt lon="9.22054000" lat="53.89832334">
                <ele>7</ele>
                <time>2013-03-20T00:43:11.804+01:00</time>
            </trkpt>
            <trkpt lon="9.21954084" lat="53.89796445">
                <ele>6</ele>
                <time>2013-03-20T00:43:38.804+01:00</time>
            </trkpt>
            <trkpt lon="9.21831278" lat="53.89757084">
                <ele>6</ele>
                <time>2013-03-20T00:44:11.804+01:00</time>
            </trkpt>
            <trkpt lon="9.21686639" lat="53.89735001">
                <ele>6</ele>
                <time>2013-03-20T00:44:49.804+01:00</time>
            </trkpt>
            <trkpt lon="9.21312695" lat="53.89750639">
                <ele>7</ele>
                <time>2013-03-20T00:46:28.804+01:00</time>
            </trkpt>
            <trkpt lon="9.20898556" lat="53.89780334">
                <ele>7</ele>
                <time>2013-03-20T00:48:17.804+01:00</time>
            </trkpt>
            <trkpt lon="9.19754639" lat="53.89838278">
                <ele>7</ele>
                <time>2013-03-20T00:53:20.804+01:00</time>
            </trkpt>
            <trkpt lon="9.19320000" lat="53.89858778">
                <ele>6</ele>
                <time>2013-03-20T00:55:15.804+01:00</time>
            </trkpt>
            <trkpt lon="9.19122473" lat="53.89852695">
                <ele>5</ele>
                <time>2013-03-20T00:56:07.804+01:00</time>
            </trkpt>
            <trkpt lon="9.18848528" lat="53.89809306">
                <ele>6</ele>
                <time>2013-03-20T00:57:20.804+01:00</time>
            </trkpt>
            <trkpt lon="9.18538084" lat="53.89740000">
                <ele>5</ele>
                <time>2013-03-20T00:58:42.804+01:00</time>
            </trkpt>
            <trkpt lon="9.18189973" lat="53.89668362">
                <ele>6</ele>
                <time>2013-03-20T01:00:15.804+01:00</time>
            </trkpt>
            <trkpt lon="9.17826417" lat="53.89643139">
                <ele>5</ele>
                <time>2013-03-20T01:01:51.804+01:00</time>
            </trkpt>
            <trkpt lon="9.17826417" lat="53.89643139">
                <ele>5</ele>
                <time>2013-03-20T01:01:51.804+01:00</time>
            </trkpt>
            <trkpt lon="9.17437306" lat="53.89626389">
                <ele>6</ele>
                <time>2013-03-20T01:03:34.804+01:00</time>
            </trkpt>
            <trkpt lon="9.17085695" lat="53.89610112">
                <ele>6</ele>
                <time>2013-03-20T01:05:07.804+01:00</time>
            </trkpt>
            <trkpt lon="9.16833862" lat="53.89589251">
                <ele>6</ele>
                <time>2013-03-20T01:06:13.804+01:00</time>
            </trkpt>
            <trkpt lon="9.16466862" lat="53.89566473">
                <ele>7</ele>
                <time>2013-03-20T01:07:50.804+01:00</time>
            </trkpt>
            <trkpt lon="9.16466167" lat="53.89561278">
                <ele>7</ele>
                <time>2013-03-20T01:07:50.804+01:00</time>
            </trkpt>
            <trkpt lon="9.16166195" lat="53.89532778">
                <ele>8</ele>
                <time>2013-03-20T01:09:09.804+01:00</time>
            </trkpt>
            <trkpt lon="9.16043417" lat="53.89538223">
                <ele>6</ele>
                <time>2013-03-20T01:09:41.804+01:00</time>
            </trkpt>
            <trkpt lon="9.15893639" lat="53.89602639">
                <ele>6</ele>
                <time>2013-03-20T01:10:21.804+01:00</time>
            </trkpt>
            <trkpt lon="9.15779528" lat="53.89657806">
                <ele>8</ele>
                <time>2013-03-20T01:10:52.804+01:00</time>
            </trkpt>
            <trkpt lon="9.15710945" lat="53.89674806">
                <ele>9</ele>
                <time>2013-03-20T01:11:10.804+01:00</time>
            </trkpt>
            <trkpt lon="9.15556528" lat="53.89678389">
                <ele>10</ele>
                <time>2013-03-20T01:11:51.804+01:00</time>
            </trkpt>
            <trkpt lon="9.15579417" lat="53.89685084">
                <ele>10</ele>
                <time>2013-03-20T01:11:51.804+01:00</time>
            </trkpt>
            <trkpt lon="9.15474112" lat="53.89634695">
                <ele>12</ele>
                <time>2081-04-07T04:25:58.804+01:00</time>
            </trkpt>
            <trkpt lon="9.15078778" lat="53.89715473">
                <ele>19</ele>
                <time>2149-04-26T07:40:05.804+01:00</time>
            </trkpt>
            <trkpt lon="9.14833195" lat="53.89754723">
                <ele>9</ele>
                <time>2149-04-26T07:40:05.804+01:00</time>
            </trkpt>
            <trkpt lon="9.14834639" lat="53.89753306">
                <ele>9</ele>
                <time>2149-04-26T07:40:05.804+01:00</time>
            </trkpt>
            <trkpt lon="9.14630695" lat="53.89770417">
                <ele>7</ele>
                <time>2149-04-26T07:40:59.804+01:00</time>
            </trkpt>
            <trkpt lon="9.14462723" lat="53.89760834">
                <ele>7</ele>
                <time>2149-04-26T07:41:43.804+01:00</time>
            </trkpt>
            <trkpt lon="9.14473750" lat="53.89763806">
                <ele>8</ele>
                <time>2149-04-26T07:41:46.804+01:00</time>
            </trkpt>
            <trkpt lon="9.14372195" lat="53.89607612">
                <ele>7</ele>
                <time>2149-04-26T07:42:22.804+01:00</time>
            </trkpt>
            <trkpt lon="9.14354362" lat="53.89610223">
                <ele>7</ele>
                <time>2149-04-26T07:42:26.804+01:00</time>
            </trkpt>
            <trkpt lon="9.14268945" lat="53.89497528">
                <ele>8</ele>
                <time>2149-04-26T07:42:54.804+01:00</time>
            </trkpt>
            <trkpt lon="9.14160612" lat="53.89407223">
                <ele>9</ele>
                <time>2149-04-26T07:43:26.804+01:00</time>
            </trkpt>
            <trkpt lon="9.14071362" lat="53.89355167">
                <ele>10</ele>
                <time>2149-04-26T07:43:51.804+01:00</time>
            </trkpt>
            <trkpt lon="9.14083278" lat="53.89363056">
                <ele>9</ele>
                <time>2149-04-26T07:43:54.804+01:00</time>
            </trkpt>
            <trkpt lon="9.13871389" lat="53.89244139">
                <ele>18</ele>
                <time>2149-04-26T07:44:55.804+01:00</time>
            </trkpt>
            <trkpt lon="9.13709223" lat="53.89154000">
                <ele>17</ele>
                <time>2149-04-26T07:45:40.804+01:00</time>
            </trkpt>
            <trkpt lon="9.13489639" lat="53.89045001">
                <ele>13</ele>
                <time>2149-04-26T07:46:40.804+01:00</time>
            </trkpt>
            <trkpt lon="9.13353528" lat="53.89005139">
                <ele>11</ele>
                <time>2149-04-26T07:47:16.804+01:00</time>
            </trkpt>
            <trkpt lon="9.13168334" lat="53.88957000">
                <ele>7</ele>
                <time>2149-04-26T07:48:05.804+01:00</time>
            </trkpt>
            <trkpt lon="9.12966862" lat="53.88919028">
                <ele>8</ele>
                <time>2149-04-26T07:48:58.804+01:00</time>
            </trkpt>
            <trkpt lon="9.12974500" lat="53.88917306">
                <ele>8</ele>
                <time>2149-04-26T07:49:00.804+01:00</time>
            </trkpt>
            <trkpt lon="9.12708723" lat="53.88847445">
                <ele>7</ele>
                <time>2149-04-26T07:50:11.804+01:00</time>
            </trkpt>
            <trkpt lon="9.12606001" lat="53.88969389">
                <ele>7</ele>
                <time>2149-04-26T07:50:44.804+01:00</time>
            </trkpt>
            <trkpt lon="9.12626778" lat="53.88959473">
                <ele>7</ele>
                <time>2149-04-26T07:50:49.804+01:00</time>
            </trkpt>
            <trkpt lon="9.12515917" lat="53.89075334">
                <ele>8</ele>
                <time>2149-04-26T07:51:23.804+01:00</time>
            </trkpt>
            <trkpt lon="9.12672417" lat="53.89239195">
                <ele>12</ele>
                <time>2149-04-26T07:52:12.804+01:00</time>
            </trkpt>
            <trkpt lon="9.12896028" lat="53.89421389">
                <ele>9</ele>
                <time>2149-04-26T07:53:17.804+01:00</time>
            </trkpt>
            <trkpt lon="9.12892750" lat="53.89426084">
                <ele>9</ele>
                <time>2149-04-26T07:53:18.804+01:00</time>
            </trkpt>
            <trkpt lon="9.12642000" lat="53.89543723">
                <ele>9</ele>
                <time>2149-04-26T07:54:26.804+01:00</time>
            </trkpt>
            <trkpt lon="9.12643973" lat="53.89544278">
                <ele>9</ele>
                <time>2149-04-26T07:54:26.804+01:00</time>
            </trkpt>
            <trkpt lon="9.12616556" lat="53.89567334">
                <ele>8</ele>
                <time>2149-04-26T07:54:34.804+01:00</time>
            </trkpt>
            <trkpt lon="9.12762528" lat="53.89685028">
                <ele>9</ele>
                <time>2149-04-26T07:55:17.804+01:00</time>
            </trkpt>
            <trkpt lon="9.12867028" lat="53.89776278">
                <ele>11</ele>
                <time>2149-04-26T07:55:48.804+01:00</time>
            </trkpt>
            <trkpt lon="9.12859445" lat="53.89759778">
                <ele>11</ele>
                <time>2149-04-26T07:55:51.804+01:00</time>
            </trkpt>
            <trkpt lon="9.12799889" lat="53.89779584">
                <ele>9</ele>
                <time>2149-04-26T07:56:07.804+01:00</time>
            </trkpt>
            <trkpt lon="9.12696945" lat="53.89786473">
                <ele>8</ele>
                <time>2149-04-26T07:56:34.804+01:00</time>
            </trkpt>
            <trkpt lon="9.12622639" lat="53.89806806">
                <ele>7</ele>
                <time>2149-04-26T07:56:53.804+01:00</time>
            </trkpt>
            <trkpt lon="9.12565501" lat="53.89827139">
                <ele>7</ele>
                <time>2149-04-26T07:57:08.804+01:00</time>
            </trkpt>
            <trkpt lon="9.12405362" lat="53.89827306">
                <ele>10</ele>
                <time>2149-04-26T07:57:51.804+01:00</time>
            </trkpt>
            <trkpt lon="9.12422500" lat="53.89827306">
                <ele>9</ele>
                <time>2149-04-26T07:57:55.804+01:00</time>
            </trkpt>
            <trkpt lon="9.12169362" lat="53.89818528">
                <ele>6</ele>
                <time>2149-04-26T07:59:02.804+01:00</time>
            </trkpt>
            <trkpt lon="9.12039445" lat="53.89818445">
                <ele>6</ele>
                <time>2149-04-26T07:59:36.804+01:00</time>
            </trkpt>
        </trkseg>
    </trk>
</gpx>
